FX5190 / N939FD 7700 Squawk Report (26th of April, 2019)

Aircraft B752 Reg No. N939FD Age 29 years old
Model 757 Jet engines 2 First flight 21-09-89
Registered 06-12-10 Rollout N/A Delivered 06-10-89
Construction No. 24528 Line No. 0250 Series 23A(SF)
ADSHEX AD0799 Airline name FedEx Owner Federal Express Corp
Airfield based Memphis International~TN~N First tracked 2017-07-13 07:11:00

Flight history for N939FD

Route Flight No Date Playback
Ben Gurion (TLV) - Charles De Gaulle (CDG) FX5071 2019-05-23 17:00:00
Frankfurt Main (FRA) - Ben Gurion (TLV) FX5065 2019-05-23 12:17:00
Ben Gurion (TLV) - Charles De Gaulle (CDG) FX5071 2019-05-22 16:28:00
Frankfurt Main (FRA) - Ben Gurion (TLV) FX5065 2019-05-22 11:20:00
Ben Gurion (TLV) - Charles De Gaulle (CDG) FX5071 2019-05-21 22:24:00
Frankfurt Main (FRA) - Ben Gurion (TLV) FX5065 2019-05-21 11:47:00
Ben Gurion (TLV) - Charles De Gaulle (CDG) FX5071 2019-05-20 23:03:00
Frankfurt Main (FRA) - Ben Gurion (TLV) FX5065 2019-05-19 03:35:00
Helsinki Vantaa (HEL) - Arlanda (ARN) - Charles De Gaulle (CDG) FX5195 2019-05-18 22:22:00
Charles De Gaulle (CDG) - Arlanda (ARN) - Helsinki Vantaa (HEL) FX5190 2019-05-17 05:55:00
Helsinki Vantaa (HEL) - Arlanda (ARN) - Charles De Gaulle (CDG) FX5195 2019-05-17 01:48:00
???? N/A 2019-05-16 16:37:00
Charles De Gaulle (CDG) - Arlanda (ARN) - Helsinki Vantaa (HEL) FX5190 2019-05-16 04:04:00
Helsinki Vantaa (HEL) - Arlanda (ARN) - Charles De Gaulle (CDG) FX5195 2019-05-16 01:55:00
Charles De Gaulle (CDG) - Arlanda (ARN) - Helsinki Vantaa (HEL) FX5190 2019-05-15 06:05:00
Manchester (MAN) - Birmingham (BHX) - Charles De Gaulle (CDG) FX5203 2019-05-15 02:06:00
Charles De Gaulle (CDG) - Birmingham (BHX) - Manchester (MAN) FX5204 2019-05-14 04:44:00
Schiphol (AMS) - Charles De Gaulle (CDG) FX5187 2019-05-13 22:00:00
EGMA - EGBR - Charles De Gaulle (CDG) FX5188 2019-05-10 03:43:00
Budapest Ferenc Liszt (BUD) - Schwechat (VIE) - Charles De Gaulle (CDG) FX5112 2019-05-10 02:42:00
Time Lat Lon Altitude Heading Speed Vertical Rate
2019-04-26 03:38:04 GMT 52.294292 4.760298 0 146 0
2019-04-26 03:37:49 GMT 52.294292 4.760303 0 146 0
2019-04-26 03:37:24 GMT 52.294292 4.760298 0 146 0
2019-04-26 03:32:34 GMT 52.294292 4.760298 0 146 0
2019-04-26 03:32:09 GMT 52.294292 4.760303 0 146 0
2019-04-26 03:31:24 GMT 52.294292 4.760298 0 146 0
2019-04-26 03:31:03 GMT 52.294292 4.760303 0 146 0
2019-04-26 03:30:59 GMT 52.294292 4.760298 0 146 0
2019-04-26 03:30:14 GMT 52.294292 4.760303 0 146 0
2019-04-26 03:30:03 GMT 52.294292 4.760298 0 146 0
2019-04-26 03:29:23 GMT 52.294292 4.760303 0 146 0
2019-04-26 03:29:03 GMT 52.294292 4.760298 0 146 0
2019-04-26 03:28:43 GMT 52.294292 4.760303 0 146 0
2019-04-26 03:28:13 GMT 52.294292 4.760298 0 146 0
2019-04-26 03:27:18 GMT 52.294292 4.760303 0 146 0
2019-04-26 03:26:13 GMT 52.294292 4.760298 0 146 0
2019-04-26 03:25:58 GMT 52.294281 4.760298 0 146 0
2019-04-26 03:25:48 GMT 52.294292 4.760303 0 146 0
We lost coverage of the aircraft here for a total of 7 minutes
2019-04-26 03:18:56 GMT 52.294304 4.760303 0 146 0 0
2019-04-26 03:18:05 GMT 52.294292 4.760303 0 146 0 0
2019-04-26 03:17:43 GMT 52.294304 4.760284 0 146 2 0
2019-04-26 03:17:24 GMT 52.294464 4.760132 0 149 5 0
2019-04-26 03:17:08 GMT 52.294762 4.759827 0 149 4 0
2019-04-26 03:16:58 GMT 52.295029 4.759572 0 168 8 0
2019-04-26 03:16:52 GMT 52.295197 4.759502 0 210 5 0
2019-04-26 03:16:39 GMT 52.295311 4.759579 0 241 0 0
2019-04-26 03:16:34 GMT 52.295307 4.759572 0 241 0 0
2019-04-26 03:16:08 GMT 52.295311 4.759579 0 241 0 0
2019-04-26 03:14:17 GMT 52.295311 4.759579 0 241 0 0
2019-04-26 03:14:03 GMT 52.295364 4.759729 0 239 12 0
2019-04-26 03:14:00 GMT 52.295448 4.759960 0 239 13 0
2019-04-26 03:13:08 GMT 52.297924 4.766438 0 239 18 0
2019-04-26 03:12:48 GMT 52.298798 4.768400 0 219 16 0
2019-04-26 03:12:15 GMT 52.300358 4.771853 0 239 17 0
2019-04-26 03:12:01 GMT 52.300884 4.773197 0 239 15 0
2019-04-26 03:11:43 GMT 52.301579 4.774756 0 219 14 0
2019-04-26 03:11:35 GMT 52.302006 4.775219 0 205 12 0
2019-04-26 03:10:20 GMT 52.300041 4.765673 0 59 40 0
2019-04-26 03:10:15 GMT 52.299637 4.764614 0 59 41 0
2019-04-26 03:09:58 GMT 52.297829 4.759903 0 59 52 0
2019-04-26 03:09:55 GMT 52.297440 4.758892 0 59 58 0
2019-04-26 03:09:45 GMT 52.295933 4.754981 0 59 76 0
2019-04-26 03:09:24 GMT 52.290436 4.740601 100 57 132 -192
2019-04-26 03:09:16 GMT 52.286541 4.730477 250 57 136 -768
2019-04-26 03:09:11 GMT 52.286541 4.730477 250 58 135 -704
2019-04-26 03:09:06 GMT 52.284588 4.725377 300 57 136 -768
2019-04-26 03:09:03 GMT 52.283611 4.722866 400 57 137 -704
2019-04-26 03:09:00 GMT 52.282631 4.720276 425 57 137 -704
2019-04-26 03:08:57 GMT 52.281738 4.718018 425 58 137 -768
2019-04-26 03:08:53 GMT 52.280548 4.714966 475 57 139 -704
2019-04-26 03:08:50 GMT 52.279221 4.711380 525 58 140 -832
2019-04-26 03:08:46 GMT 52.277836 4.707799 575 57 141 -768
2019-04-26 03:08:42 GMT 52.276814 4.705130 600 57 142 -768
2019-04-26 03:08:39 GMT 52.275417 4.701521 650 57 145 -768
2019-04-26 03:08:36 GMT 52.274323 4.698792 700 57 145 -832
2019-04-26 03:08:33 GMT 52.272717 4.694615 750 57 146 -768
2019-04-26 03:08:30 GMT 52.272171 4.693146 875 57 150 -768
2019-04-26 03:08:26 GMT 52.270844 4.689789 850 57 148 -832
2019-04-26 03:08:23 GMT 52.269745 4.686890 875 57 150 -768
2019-04-26 03:08:20 GMT 52.268829 4.684448 900 57 150 -768
2019-04-26 03:08:17 GMT 52.265991 4.677124 1,025 57 151 -832
2019-04-26 03:08:13 GMT 52.265991 4.677124 1,000 57 154 -832
2019-04-26 03:08:09 GMT 52.262970 4.669342 1,100 57 157 -896
2019-04-26 03:08:06 GMT 52.262970 4.669342 1,125 57 158 -896
2019-04-26 03:08:00 GMT 52.260773 4.663620 1,200 57 159 -896
2019-04-26 03:07:55 GMT 52.258987 4.658966 1,275 57 161 -896
2019-04-26 03:07:52 GMT 52.257751 4.655838 1,325 57 163 -896
2019-04-26 03:07:49 GMT 52.256798 4.653416 1,350 57 163 -896
2019-04-26 03:07:45 GMT 52.255005 4.648666 1,425 57 166 -960
2019-04-26 03:07:42 GMT 52.253956 4.645883 1,450 57 167 -896
2019-04-26 03:07:39 GMT 52.252701 4.642744 1,500 57 170 -896
2019-04-26 03:07:35 GMT 52.250881 4.638035 1,575 57 172 -1024
2019-04-26 03:07:32 GMT 52.249813 4.635289 1,625 57 173 -1024
2019-04-26 03:07:29 GMT 52.248276 4.631271 1,675 57 176 -960
2019-04-26 03:07:25 GMT 52.246601 4.626971 1,725 57 179 -960
2019-04-26 03:07:22 GMT 52.245117 4.623184 1,800 57 180 -1024
2019-04-26 03:07:19 GMT 52.242142 4.615402 1,850 58 198 -1088
2019-04-26 03:07:15 GMT 52.242142 4.615402 1,900 57 185 -1024
2019-04-26 03:07:12 GMT 52.240501 4.611197 1,975 57 186 -1024
2019-04-26 03:07:09 GMT 52.239246 4.607901 2,025 57 187 -1152
2019-04-26 03:07:04 GMT 52.237335 4.602966 2,100 57 189 -960
2019-04-26 03:07:01 GMT 52.235870 4.599152 2,150 57 191 -960
2019-04-26 03:06:58 GMT 52.234131 4.594803 2,200 57 191 -1152
2019-04-26 03:06:55 GMT 52.232681 4.591030 2,250 57 194 -1152
2019-04-26 03:06:50 GMT 52.230286 4.584885 2,325 57 198 -1088
2019-04-26 03:06:47 GMT 52.229095 4.581691 2,325 58 199 -1088
2019-04-26 03:06:43 GMT 52.226444 4.574707 2,475 58 205 -1152
2019-04-26 03:06:40 GMT 52.225204 4.571228 2,500 59 206 -1152
2019-04-26 03:06:37 GMT 52.223976 4.567880 2,525 59 208 -1216
2019-04-26 03:06:34 GMT 52.222439 4.563799 2,600 59 210 -1216
2019-04-26 03:06:31 GMT 52.220764 4.559169 2,700 58 213 -1216
2019-04-26 03:06:28 GMT 52.219788 4.556423 2,725 58 215 -1216
2019-04-26 03:06:25 GMT 52.218018 4.551793 2,825 58 217 -1152
2019-04-26 03:06:22 GMT 52.216343 4.547320 2,900 58 221 -1152
2019-04-26 03:06:18 GMT 52.214355 4.542160 2,925 58 223 -1152
2019-04-26 03:06:15 GMT 52.212479 4.537197 3,025 60 224 -1216
2019-04-26 03:06:09 GMT 52.209637 4.529035 3,100 63 228 -384
2019-04-26 03:06:06 GMT 52.208195 4.524405 3,125 64 228 -256
2019-04-26 03:06:02 GMT 52.206146 4.517578 3,125 62 229 64
2019-04-26 03:05:59 GMT 52.204517 4.512477 3,125 58 229 0
2019-04-26 03:05:56 GMT 52.203075 4.508632 3,125 56 230 0
2019-04-26 03:05:52 GMT 52.199524 4.501877 3,125 39 231 64
2019-04-26 03:05:48 GMT 52.196930 4.498509 3,125 31 232 0
2019-04-26 03:05:45 GMT 52.194092 4.495762 3,125 26 232 0
2019-04-26 03:05:42 GMT 52.191296 4.493879 3,125 21 231 0
2019-04-26 03:05:39 GMT 52.188690 4.492623 3,125 9 231 128
2019-04-26 03:05:36 GMT 52.185524 4.491682 3,100 351 228 64
2019-04-26 03:05:33 GMT 52.182686 4.491211 3,100 0 230 128
2019-04-26 03:05:29 GMT 52.177052 4.491917 3,100 347 228 -128
2019-04-26 03:05:26 GMT 52.174538 4.492702 3,125 343 227 -256
2019-04-26 03:05:23 GMT 52.171280 4.494400 3,125 336 229 -640
2019-04-26 03:05:19 GMT 52.167507 4.497018 3,150 334 229 -896
2019-04-26 03:05:16 GMT 52.164871 4.499130 3,325 333 231 -1024
2019-04-26 03:05:12 GMT 52.161037 4.502354 3,575 334 232 -1088
2019-04-26 03:05:08 GMT 52.157730 4.505101 3,350 333 231 -1024
2019-04-26 03:05:05 GMT 52.155220 4.507220 3,375 333 231 -1024
2019-04-26 03:05:02 GMT 52.152191 4.509652 3,450 334 232 -1088
2019-04-26 03:04:59 GMT 52.148575 4.512634 3,500 334 233 -1088
2019-04-26 03:04:56 GMT 52.146606 4.514236 3,525 334 233 -1088
2019-04-26 03:04:53 GMT 52.140060 4.519653 3,650 334 233 -1088
2019-04-26 03:04:50 GMT 52.140060 4.519653 3,675 334 234 -1088
2019-04-26 03:04:47 GMT 52.137131 4.522018 3,725 334 234 -1088
2019-04-26 03:04:44 GMT 52.134270 4.524327 3,775 334 235 -1088
2019-04-26 03:04:41 GMT 52.131409 4.526596 3,825 334 234 -1088
2019-04-26 03:04:38 GMT 52.125565 4.531233 3,925 335 236 -1088
2019-04-26 03:04:35 GMT 52.122528 4.533539 4,150 336 236 -1024
2019-04-26 03:04:32 GMT 52.122528 4.533539 4,000 336 236 -1024
2019-04-26 03:04:29 GMT 52.120056 4.535370 4,225 340 238 -1088
2019-04-26 03:04:26 GMT 52.116535 4.537824 4,075 339 238 -1088
2019-04-26 03:04:23 GMT 52.110901 4.541092 4,175 343 240 -1088
2019-04-26 03:04:20 GMT 52.110901 4.541092 4,375 344 240 -896
2019-04-26 03:04:17 GMT 52.106140 4.543457 4,250 344 240 -960
2019-04-26 03:04:14 GMT 52.102802 4.545044 4,300 344 241 -896
2019-04-26 03:04:11 GMT 52.101170 4.545829 4,325 344 241 -896
2019-04-26 03:04:08 GMT 52.097588 4.547477 4,375 344 243 -768
2019-04-26 03:04:05 GMT 52.094284 4.549103 4,425 344 245 -640
2019-04-26 03:04:02 GMT 52.091442 4.550459 4,450 344 246 -576
2019-04-26 03:03:59 GMT 52.086960 4.552536 4,475 344 250 -320
2019-04-26 03:03:53 GMT 52.080872 4.555435 4,500 344 255 64
2019-04-26 03:03:50 GMT 52.077755 4.556972 4,500 344 257 64
2019-04-26 03:03:47 GMT 52.074142 4.558640 4,475 344 259 0
2019-04-26 03:03:44 GMT 52.069336 4.560928 4,500 344 260 0
2019-04-26 03:03:41 GMT 52.067184 4.561920 4,500 344 264 -128
2019-04-26 03:03:38 GMT 52.064026 4.563446 4,500 344 267 -320
2019-04-26 03:03:35 GMT 52.060345 4.565212 4,550 344 268 -1152
2019-04-26 03:03:32 GMT 52.057022 4.566803 4,525 344 267 -512
2019-04-26 03:03:29 GMT 52.049103 4.570541 4,625 344 268 -1152
2019-04-26 03:03:26 GMT 52.049103 4.570541 4,650 344 269 -1280
2019-04-26 03:03:23 GMT 52.045532 4.572220 4,725 344 269 -1408
2019-04-26 03:03:20 GMT 52.042793 4.573451 4,750 344 269 -1408
2019-04-26 03:03:17 GMT 52.039257 4.575178 4,950 344 269 -1472
2019-04-26 03:03:14 GMT 52.035370 4.576950 5,050 344 269 -1472
2019-04-26 03:03:10 GMT 52.030178 4.579415 5,025 344 269 -1472
2019-04-26 03:03:07 GMT 52.027405 4.580765 5,100 344 269 -1472
2019-04-26 03:03:04 GMT 52.023197 4.582711 5,200 344 269 -1472
2019-04-26 03:03:01 GMT 52.020264 4.584124 5,400 344 269 -1472
2019-04-26 03:02:58 GMT 52.017143 4.585615 5,275 344 268 -1408
2019-04-26 03:02:55 GMT 52.009602 4.589146 5,425 344 268 -1408
2019-04-26 03:02:52 GMT 52.009602 4.589146 5,500 344 269 -1408
2019-04-26 03:02:49 GMT 52.004562 4.591599 5,525 344 269 -1408
2019-04-26 03:02:46 GMT 52.002853 4.592442 5,550 344 269 -1408
2019-04-26 03:02:43 GMT 51.998337 4.594561 5,600 344 269 -1408
2019-04-26 03:02:40 GMT 51.994583 4.596405 5,825 344 270 -1408
2019-04-26 03:02:37 GMT 51.990555 4.598389 5,800 344 270 -1408
2019-04-26 03:02:34 GMT 51.987679 4.599740 5,850 344 270 -1408
2019-04-26 03:02:31 GMT 51.983906 4.601624 5,925 344 270 -1408
2019-04-26 03:02:28 GMT 51.980438 4.603271 5,975 344 270 -1408
2019-04-26 03:02:25 GMT 51.976830 4.605076 6,025 344 270 -1408
2019-04-26 03:02:22 GMT 51.973114 4.606857 6,125 344 270 -1408
2019-04-26 03:02:19 GMT 51.968452 4.609079 6,225 344 270 -1472
2019-04-26 03:02:16 GMT 51.965927 4.610291 6,275 344 270 -1408
2019-04-26 03:02:13 GMT 51.958420 4.613953 6,475 344 270 -1408
2019-04-26 03:02:10 GMT 51.958420 4.613953 6,525 344 270 -1408
2019-04-26 03:02:07 GMT 51.955307 4.615479 6,500 344 270 -1408
2019-04-26 03:02:04 GMT 51.951599 4.617310 6,550 344 270 -1408
2019-04-26 03:02:01 GMT 51.947968 4.619045 6,600 344 270 -1408
2019-04-26 03:01:57 GMT 51.942673 4.621658 6,750 343 271 -1408
2019-04-26 03:01:54 GMT 51.935898 4.625092 6,825 343 271 -1408
2019-04-26 03:01:51 GMT 51.932140 4.626971 6,875 343 271 -1408
2019-04-26 03:01:48 GMT 51.932140 4.626971 6,975 343 271 -1408
2019-04-26 03:01:45 GMT 51.927567 4.629211 7,025 343 271 -1408
2019-04-26 03:01:42 GMT 51.925415 4.630356 7,050 343 271 -1408
2019-04-26 03:01:39 GMT 51.921661 4.632263 7,150 343 271 -1472
2019-04-26 03:01:36 GMT 51.918594 4.633789 7,250 343 271 -1472
2019-04-26 03:01:33 GMT 51.914383 4.635925 7,325 343 272 -1472
2019-04-26 03:01:30 GMT 51.909851 4.638214 7,400 343 272 -1472
2019-04-26 03:01:26 GMT 51.906235 4.639969 7,500 343 272 -1472
2019-04-26 03:01:23 GMT 51.901604 4.642273 7,575 344 272 -1472
2019-04-26 03:01:20 GMT 51.899273 4.643450 7,625 344 273 -1472
2019-04-26 03:01:17 GMT 51.895432 4.645309 7,650 344 273 -1472
2019-04-26 03:01:14 GMT 51.888336 4.648514 7,800 346 273 -1472
2019-04-26 03:01:11 GMT 51.888336 4.648514 7,850 346 274 -1472
2019-04-26 03:01:08 GMT 51.883392 4.650483 8,000 348 274 -1536
2019-04-26 03:01:04 GMT 51.878929 4.651947 8,050 351 276 -1536
2019-04-26 03:01:01 GMT 51.875381 4.653007 8,100 351 275 -1472
2019-04-26 03:00:58 GMT 51.871765 4.653898 8,200 351 275 -1472
2019-04-26 03:00:55 GMT 51.867947 4.654999 8,250 351 276 -1408
2019-04-26 03:00:52 GMT 51.862869 4.656296 8,300 351 276 -1408
2019-04-26 03:00:49 GMT 51.860218 4.656982 8,350 351 276 -1344
2019-04-26 03:00:46 GMT 51.856979 4.657832 8,500 351 277 -1344
2019-04-26 03:00:43 GMT 51.852814 4.658890 8,525 351 278 -1280
2019-04-26 03:00:40 GMT 51.848206 4.660034 8,600 352 279 -1280
2019-04-26 03:00:37 GMT 51.844940 4.660875 8,650 352 279 -1280
2019-04-26 03:00:34 GMT 51.841457 4.661789 8,800 352 281 -1280
2019-04-26 03:00:31 GMT 51.837593 4.662781 8,775 352 281 -1280
2019-04-26 03:00:28 GMT 51.833176 4.663845 8,875 352 281 -1280
2019-04-26 03:00:22 GMT 51.826080 4.665626 8,950 352 282 -1280
2019-04-26 03:00:19 GMT 51.821766 4.666748 9,025 352 283 -1280
2019-04-26 03:00:16 GMT 51.819065 4.667435 9,075 352 283 -1280
2019-04-26 03:00:13 GMT 51.813107 4.668961 9,200 351 284 -1344
2019-04-26 03:00:10 GMT 51.809242 4.669952 9,250 351 284 -1344
2019-04-26 03:00:07 GMT 51.806076 4.670792 9,300 351 284 -1344
2019-04-26 03:00:04 GMT 51.802780 4.671639 9,900 299 293 64
2019-04-26 03:00:00 GMT 51.797699 4.673050 9,450 350 286 -1216
2019-04-26 02:59:57 GMT 51.792995 4.674377 9,500 350 287 -1216
2019-04-26 02:59:54 GMT 51.789505 4.675446 9,700 348 290 -896
2019-04-26 02:59:51 GMT 51.785919 4.676514 9,600 350 289 -1024
2019-04-26 02:59:48 GMT 51.781860 4.677800 9,775 342 291 -960
2019-04-26 02:59:44 GMT 51.774948 4.680250 9,750 345 291 -896
2019-04-26 02:59:41 GMT 51.772419 4.681396 9,775 340 292 -960
2019-04-26 02:59:38 GMT 51.768600 4.683685 9,800 339 292 -960
2019-04-26 02:59:35 GMT 51.762783 4.688187 9,875 330 293 -832
2019-04-26 02:59:32 GMT 51.761433 4.689407 9,950 325 294 -704
2019-04-26 02:59:29 GMT 51.757965 4.693092 9,925 324 293 -640
2019-04-26 02:59:26 GMT 51.752197 4.700812 10,000 315 294 -384
2019-04-26 02:59:23 GMT 51.749130 4.705786 10,000 313 293 -192
2019-04-26 02:59:20 GMT 51.749130 4.705786 10,000 310 293 0
2019-04-26 02:59:17 GMT 51.746536 4.710770 10,000 307 293 0
2019-04-26 02:59:14 GMT 51.743511 4.717484 10,000 300 293 64
2019-04-26 02:59:11 GMT 51.741669 4.722265 10,000 299 293 64
2019-04-26 02:59:08 GMT 51.739647 4.728546 10,000 296 292 64
2019-04-26 02:59:05 GMT 51.738392 4.733353 10,000 291 292 64
2019-04-26 02:59:02 GMT 51.736668 4.741211 10,000 285 291 0
2019-04-26 02:58:59 GMT 51.735214 4.750919 10,000 283 290 -64
2019-04-26 02:58:56 GMT 51.734985 4.752923 10,000 279 289 -64
2019-04-26 02:58:53 GMT 51.734436 4.759233 10,000 276 288 0
2019-04-26 02:58:50 GMT 51.733978 4.766211 10,000 275 288 0
2019-04-26 02:58:47 GMT 51.733704 4.771630 10,000 275 288 0
2019-04-26 02:58:44 GMT 51.733410 4.776840 10,000 275 288 0
2019-04-26 02:58:41 GMT 51.732697 4.790262 10,000 275 288 0
2019-04-26 02:58:38 GMT 51.732697 4.790262 10,000 275 288 0
2019-04-26 02:58:35 GMT 51.732330 4.797165 10,000 275 288 0
2019-04-26 02:58:32 GMT 51.732059 4.802628 10,000 275 288 0
2019-04-26 02:58:29 GMT 51.731594 4.811478 10,000 275 288 0
2019-04-26 02:58:23 GMT 51.730957 4.822775 10,000 275 287 0
2019-04-26 02:58:20 GMT 51.730663 4.829102 10,000 275 287 0
2019-04-26 02:58:17 GMT 51.730179 4.838513 10,000 275 287 0
2019-04-26 02:58:14 GMT 51.730011 4.841843 10,000 275 286 0
2019-04-26 02:58:11 GMT 51.729591 4.849930 10,000 275 286 -64
2019-04-26 02:58:08 GMT 51.729359 4.854355 10,000 275 286 0
2019-04-26 02:58:05 GMT 51.728989 4.860931 10,000 275 286 0
2019-04-26 02:58:02 GMT 51.728348 4.873698 10,000 275 286 64
2019-04-26 02:57:59 GMT 51.728348 4.873698 10,000 275 285 0
2019-04-26 02:57:56 GMT 51.728027 4.879711 10,000 275 285 0
2019-04-26 02:57:53 GMT 51.727310 4.893570 10,000 275 285 0
2019-04-26 02:57:50 GMT 51.727310 4.893570 10,000 275 285 0
2019-04-26 02:57:47 GMT 51.726986 4.899979 10,000 275 285 0
2019-04-26 02:57:44 GMT 51.726612 4.907227 10,000 275 285 0
2019-04-26 02:57:41 GMT 51.726425 4.911041 10,000 275 283 64
2019-04-26 02:57:38 GMT 51.726055 4.918289 10,000 275 285 0
2019-04-26 02:57:35 GMT 51.725693 4.924696 10,000 275 285 -64
2019-04-26 02:57:32 GMT 51.725372 4.931154 10,000 275 286 -64
2019-04-26 02:57:29 GMT 51.725006 4.938280 10,000 275 286 0
2019-04-26 02:57:26 GMT 51.724705 4.944305 10,000 275 283 64
2019-04-26 02:57:23 GMT 51.724422 4.950027 10,000 275 284 0
2019-04-26 02:57:20 GMT 51.724007 4.957352 10,000 275 283 64
2019-04-26 02:57:17 GMT 51.723587 4.965820 10,000 275 283 64
2019-04-26 02:57:14 GMT 51.723495 4.968196 10,000 275 283 64
2019-04-26 02:57:11 GMT 51.722717 4.982968 10,000 275 283 0
2019-04-26 02:57:08 GMT 51.722717 4.982968 10,000 275 283 0
2019-04-26 02:57:04 GMT 51.722351 4.990243 10,000 275 283 0
2019-04-26 02:57:01 GMT 51.721756 5.002268 10,000 275 284 0
2019-04-26 02:56:58 GMT 51.721756 5.002268 10,000 275 284 0
2019-04-26 02:56:55 GMT 51.721397 5.009155 10,000 275 285 0
2019-04-26 02:56:52 GMT 51.720978 5.017708 10,000 275 285 0
2019-04-26 02:56:49 GMT 51.720421 5.028534 10,000 275 285 0
2019-04-26 02:56:46 GMT 51.720421 5.028534 10,000 275 285 0
2019-04-26 02:56:43 GMT 51.720154 5.034559 10,000 275 285 0
2019-04-26 02:56:40 GMT 51.719879 5.039458 10,000 275 285 0
2019-04-26 02:56:37 GMT 51.719536 5.047073 10,000 275 285 0
2019-04-26 02:56:34 GMT 51.719193 5.053562 10,000 275 285 0
2019-04-26 02:56:31 GMT 51.718872 5.060243 10,000 275 285 0
2019-04-26 02:56:28 GMT 51.718559 5.065918 10,000 275 285 0
2019-04-26 02:56:25 GMT 51.718231 5.072708 10,000 275 285 -64
2019-04-26 02:56:22 GMT 51.717911 5.078950 10,000 275 285 0
2019-04-26 02:56:19 GMT 51.717628 5.084686 10,000 275 285 0
2019-04-26 02:56:16 GMT 51.717255 5.092392 10,000 275 285 0
2019-04-26 02:56:13 GMT 51.716949 5.098918 10,000 275 282 0
2019-04-26 02:56:10 GMT 51.716217 5.112725 10,000 275 283 64
2019-04-26 02:56:07 GMT 51.716217 5.112725 10,000 275 283 64
2019-04-26 02:56:04 GMT 51.715904 5.118866 10,000 275 283 0
2019-04-26 02:56:01 GMT 51.715668 5.124009 10,000 275 282 0
2019-04-26 02:55:58 GMT 51.715393 5.129395 10,000 275 282 0
2019-04-26 02:55:55 GMT 51.715027 5.136776 10,000 275 282 0
2019-04-26 02:55:52 GMT 51.714706 5.143160 10,000 275 282 0
2019-04-26 02:55:49 GMT 51.714432 5.148060 10,000 275 283 -64
2019-04-26 02:55:46 GMT 51.714066 5.155334 10,000 275 284 0
2019-04-26 02:55:43 GMT 51.713764 5.161514 10,000 275 284 -64
2019-04-26 02:55:40 GMT 51.713516 5.167212 10,000 275 285 -64
2019-04-26 02:55:37 GMT 51.713112 5.175171 10,000 275 285 0
2019-04-26 02:55:34 GMT 51.712833 5.180740 10,000 275 286 64
2019-04-26 02:55:31 GMT 51.712505 5.187531 10,000 275 286 64
2019-04-26 02:55:28 GMT 51.712326 5.191857 10,000 275 286 64
2019-04-26 02:55:25 GMT 51.711960 5.199280 10,000 275 286 0
2019-04-26 02:55:22 GMT 51.711716 5.205002 10,000 275 286 0
2019-04-26 02:55:19 GMT 51.711391 5.212173 10,000 275 286 0
2019-04-26 02:55:16 GMT 51.711090 5.218060 10,000 275 286 0
2019-04-26 02:55:13 GMT 51.710785 5.224838 10,000 275 286 0
2019-04-26 02:55:10 GMT 51.710495 5.231200 10,000 275 286 0
2019-04-26 02:55:07 GMT 51.710224 5.237579 10,000 275 286 0
2019-04-26 02:55:04 GMT 51.709900 5.244487 10,000 275 286 0
2019-04-26 02:54:58 GMT 51.709305 5.257032 10,000 275 286 -64
2019-04-26 02:54:55 GMT 51.708923 5.264435 10,000 275 286 -64
2019-04-26 02:54:52 GMT 51.708736 5.269089 10,000 275 286 -64
2019-04-26 02:54:49 GMT 51.708389 5.276333 10,025 274 285 -64
2019-04-26 02:54:46 GMT 51.708160 5.282420 10,025 274 285 -64
2019-04-26 02:54:43 GMT 51.707897 5.289764 10,025 273 285 -64
2019-04-26 02:54:40 GMT 51.707760 5.297318 10,025 272 285 64
2019-04-26 02:54:37 GMT 51.707748 5.300606 10,000 260 286 64
2019-04-26 02:54:34 GMT 51.707897 5.307617 10,000 255 286 -64
2019-04-26 02:54:31 GMT 51.708389 5.314785 10,000 257 285 0
2019-04-26 02:54:28 GMT 51.709213 5.321020 10,000 254 285 -64
2019-04-26 02:54:25 GMT 51.710129 5.326365 10,000 250 284 -128
2019-04-26 02:54:22 GMT 51.713425 5.338465 10,025 242 281 -128
2019-04-26 02:54:19 GMT 51.713425 5.338465 10,025 241 280 -64
2019-04-26 02:54:16 GMT 51.715115 5.343323 10,025 239 280 0
2019-04-26 02:54:13 GMT 51.717178 5.348560 10,025 236 278 128
2019-04-26 02:54:10 GMT 51.720840 5.356948 10,000 231 277 64
2019-04-26 02:54:07 GMT 51.721539 5.358353 10,000 226 277 0
2019-04-26 02:54:04 GMT 51.724503 5.363778 10,000 221 275 0
2019-04-26 02:54:01 GMT 51.727249 5.367786 10,000 217 275 64
2019-04-26 02:53:58 GMT 51.729916 5.371094 10,000 202 273 128
2019-04-26 02:53:55 GMT 51.734108 5.375214 10,000 200 273 128
2019-04-26 02:53:52 GMT 51.736954 5.377511 10,000 202 273 128
2019-04-26 02:53:49 GMT 51.741230 5.380096 10,000 198 272 64
2019-04-26 02:53:46 GMT 51.743637 5.381148 10,000 191 272 -64
2019-04-26 02:53:43 GMT 51.746704 5.382262 10,000 189 272 -128
2019-04-26 02:53:40 GMT 51.751648 5.383301 10,000 186 272 -128
2019-04-26 02:53:37 GMT 51.755383 5.383759 10,000 182 272 0
2019-04-26 02:53:34 GMT 51.759151 5.383911 10,000 182 273 0
2019-04-26 02:53:31 GMT 51.763092 5.384043 10,000 182 272 0
2019-04-26 02:53:28 GMT 51.766972 5.384216 10,000 182 272 0
2019-04-26 02:53:25 GMT 51.769768 5.384293 10,000 182 272 0
2019-04-26 02:53:22 GMT 51.775166 5.384521 10,000 182 271 0
2019-04-26 02:53:19 GMT 51.778976 5.384637 10,000 182 271 0
2019-04-26 02:53:16 GMT 51.781494 5.384785 10,000 182 270 0
2019-04-26 02:53:13 GMT 51.785294 5.384860 10,000 182 270 0
2019-04-26 02:53:10 GMT 51.791134 5.385132 10,000 182 270 0
2019-04-26 02:53:07 GMT 51.792480 5.385157 10,000 182 270 0
2019-04-26 02:53:04 GMT 51.796417 5.385305 10,000 182 270 0
2019-04-26 02:53:01 GMT 51.800949 5.385454 10,000 182 270 0
2019-04-26 02:52:58 GMT 51.803925 5.385602 10,000 182 270 0
2019-04-26 02:52:55 GMT 51.807861 5.385750 10,000 182 270 0
2019-04-26 02:52:52 GMT 51.811569 5.385895 10,000 182 270 0
2019-04-26 02:52:49 GMT 51.816330 5.386047 10,000 182 270 0
2019-04-26 02:52:46 GMT 51.818974 5.386124 10,000 182 270 0
2019-04-26 02:52:43 GMT 51.823608 5.386270 10,000 182 269 0
2019-04-26 02:52:40 GMT 51.826561 5.386429 10,000 182 270 0
2019-04-26 02:52:37 GMT 51.830154 5.386567 10,000 182 269 0
2019-04-26 02:52:34 GMT 51.834503 5.386715 10,000 182 269 0
2019-04-26 02:52:31 GMT 51.837708 5.386790 10,000 182 269 0
2019-04-26 02:52:28 GMT 51.841969 5.386963 10,000 182 269 0
2019-04-26 02:52:25 GMT 51.844803 5.387087 10,000 182 269 0
2019-04-26 02:52:22 GMT 51.848534 5.387192 10,000 182 270 0
2019-04-26 02:52:19 GMT 51.852859 5.387384 10,000 182 270 0
2019-04-26 02:52:16 GMT 51.856258 5.387497 10,000 182 270 0
2019-04-26 02:52:13 GMT 51.861427 5.387726 10,000 182 270 0
2019-04-26 02:52:10 GMT 51.864120 5.387829 10,000 182 271 0
2019-04-26 02:52:07 GMT 51.868698 5.387977 10,000 182 271 0
2019-04-26 02:52:04 GMT 51.871124 5.388126 10,000 182 271 0
2019-04-26 02:52:01 GMT 51.875931 5.388349 10,000 182 271 0
2019-04-26 02:51:58 GMT 51.878468 5.388489 10,000 182 271 0
2019-04-26 02:51:55 GMT 51.886379 5.388870 10,000 182 271 0
2019-04-26 02:51:52 GMT 51.886379 5.388870 10,000 182 271 0
2019-04-26 02:51:49 GMT 51.890335 5.389023 10,000 182 271 0
2019-04-26 02:51:46 GMT 51.893921 5.389252 10,000 182 271 0
2019-04-26 02:51:43 GMT 51.898438 5.389500 10,000 183 270 0
2019-04-26 02:51:40 GMT 51.902252 5.389709 10,000 183 270 -64
2019-04-26 02:51:37 GMT 51.905884 5.389971 10,000 183 270 0
2019-04-26 02:51:34 GMT 51.909657 5.390206 10,000 183 270 64
2019-04-26 02:51:31 GMT 51.912636 5.390363 10,000 183 270 64
2019-04-26 02:51:28 GMT 51.916965 5.390677 10,000 183 269 0
2019-04-26 02:51:25 GMT 51.920177 5.390913 10,000 183 269 0
2019-04-26 02:51:22 GMT 51.924042 5.391148 10,000 183 269 0
2019-04-26 02:51:19 GMT 51.927299 5.391384 10,000 183 269 0
2019-04-26 02:51:16 GMT 51.930557 5.391619 10,000 183 269 0
2019-04-26 02:51:13 GMT 51.935349 5.391998 10,000 183 268 0
2019-04-26 02:51:10 GMT 51.939121 5.392247 10,000 183 268 -64
2019-04-26 02:51:07 GMT 51.942215 5.392380 10,000 182 268 -64
2019-04-26 02:51:04 GMT 51.950043 5.392685 10,000 181 268 -64
2019-04-26 02:50:58 GMT 51.953926 5.392718 10,000 174 269 64
2019-04-26 02:50:55 GMT 51.957745 5.392561 10,000 174 269 64
2019-04-26 02:50:52 GMT 51.960957 5.392247 10,000 172 269 64
2019-04-26 02:50:49 GMT 51.965332 5.391312 10,000 166 270 -64
2019-04-26 02:50:46 GMT 51.971989 5.388715 10,000 132 276 0
2019-04-26 02:50:43 GMT 51.971989 5.388715 10,000 155 272 0
2019-04-26 02:50:40 GMT 51.976547 5.385590 10,000 150 273 0
2019-04-26 02:50:37 GMT 51.983299 5.379063 10,000 139 275 0
2019-04-26 02:50:34 GMT 51.983299 5.379063 10,000 121 278 64
2019-04-26 02:50:31 GMT 51.985119 5.376631 10,025 137 275 0
2019-04-26 02:50:28 GMT 51.987808 5.372467 10,025 128 277 0
2019-04-26 02:50:25 GMT 51.990891 5.366821 10,000 123 278 64
2019-04-26 02:50:22 GMT 51.992752 5.362701 10,000 117 279 64
2019-04-26 02:50:19 GMT 51.994938 5.356620 10,000 114 281 128
2019-04-26 02:50:16 GMT 51.997650 5.346069 10,000 105 283 128
2019-04-26 02:50:10 GMT 51.999023 5.337906 10,000 99 285 0
2019-04-26 02:50:07 GMT 51.999573 5.332413 10,000 93 286 -64
2019-04-26 02:50:04 GMT 51.999874 5.326878 10,000 91 287 -64
2019-04-26 02:50:01 GMT 52.000011 5.318638 10,000 88 287 0
2019-04-26 02:49:57 GMT 51.999939 5.311203 10,000 88 287 -64
2019-04-26 02:49:54 GMT 51.999783 5.304278 10,000 88 287 0
2019-04-26 02:49:51 GMT 51.999687 5.298471 10,000 88 288 0
2019-04-26 02:49:48 GMT 51.999500 5.289995 10,000 88 288 -64
2019-04-26 02:49:45 GMT 51.999363 5.284816 10,000 88 288 0
2019-04-26 02:49:42 GMT 51.999298 5.280228 10,000 88 288 0
2019-04-26 02:49:39 GMT 51.999081 5.271554 10,000 88 288 0
2019-04-26 02:49:36 GMT 51.998989 5.266453 10,000 87 288 0
2019-04-26 02:49:33 GMT 51.998840 5.259781 10,000 87 287 0
2019-04-26 02:49:29 GMT 51.998615 5.251072 10,000 87 286 0
2019-04-26 02:49:26 GMT 51.998432 5.243539 10,000 87 286 0
2019-04-26 02:49:23 GMT 51.998337 5.238495 10,000 87 286 0
2019-04-26 02:49:20 GMT 51.998150 5.232082 10,000 87 286 -64
2019-04-26 02:49:17 GMT 51.998013 5.225725 10,000 87 286 -64
2019-04-26 02:49:14 GMT 51.997684 5.212385 10,000 87 286 0
2019-04-26 02:49:11 GMT 51.997684 5.212385 10,000 87 286 0
2019-04-26 02:49:08 GMT 51.997501 5.205793 10,000 87 287 64
2019-04-26 02:49:05 GMT 51.997360 5.199437 10,000 87 287 0
2019-04-26 02:49:02 GMT 51.997101 5.187607 10,000 87 287 0
2019-04-26 02:48:56 GMT 51.996964 5.181046 10,000 87 286 -64
2019-04-26 02:48:53 GMT 51.996754 5.173933 10,000 87 286 -64
2019-04-26 02:48:50 GMT 51.996597 5.166245 10,000 87 285 -64
2019-04-26 02:48:47 GMT 51.996460 5.161896 10,000 87 284 -64
2019-04-26 02:48:44 GMT 51.996231 5.153351 10,000 87 284 128
2019-04-26 02:48:41 GMT 51.996140 5.149155 10,000 87 283 0
2019-04-26 02:48:38 GMT 51.995956 5.142441 10,000 87 283 -64
2019-04-26 02:48:35 GMT 51.995773 5.135193 10,000 87 282 0
2019-04-26 02:48:32 GMT 51.995640 5.129909 10,000 87 283 -64
2019-04-26 02:48:29 GMT 51.995270 5.115814 10,000 87 282 0
2019-04-26 02:48:26 GMT 51.995270 5.115814 10,000 87 282 0
2019-04-26 02:48:23 GMT 51.995087 5.109863 10,000 87 282 0
2019-04-26 02:48:20 GMT 51.994949 5.104599 10,000 87 282 0
2019-04-26 02:48:17 GMT 51.994766 5.098419 10,000 87 282 0
2019-04-26 02:48:14 GMT 51.994568 5.090908 10,000 87 282 0
2019-04-26 02:48:11 GMT 51.994427 5.084630 10,000 87 283 0
2019-04-26 02:48:08 GMT 51.994240 5.077724 10,000 87 283 0
2019-04-26 02:48:05 GMT 51.994102 5.072309 10,000 87 283 0
2019-04-26 02:48:02 GMT 51.993870 5.063834 10,000 87 283 0
2019-04-26 02:47:57 GMT 51.993622 5.055008 10,000 87 283 0
2019-04-26 02:47:54 GMT 51.993393 5.046997 10,000 87 283 0
2019-04-26 02:47:51 GMT 51.993263 5.041548 10,000 87 283 0
2019-04-26 02:47:48 GMT 51.993172 5.037310 10,000 87 283 0
2019-04-26 02:47:45 GMT 51.992981 5.030518 10,000 87 283 0
2019-04-26 02:47:42 GMT 51.992798 5.023812 10,000 87 283 0
2019-04-26 02:47:39 GMT 51.992615 5.016479 10,000 87 282 0
2019-04-26 02:47:36 GMT 51.992477 5.011368 10,000 87 282 0
2019-04-26 02:47:33 GMT 51.992249 5.002594 10,000 87 282 0
2019-04-26 02:47:30 GMT 51.992157 4.999466 10,000 87 282 0
2019-04-26 02:47:27 GMT 51.991776 4.984732 10,000 87 281 0
2019-04-26 02:47:24 GMT 51.991776 4.984732 10,000 87 281 0
2019-04-26 02:47:21 GMT 51.991653 4.980469 10,000 87 281 0
2019-04-26 02:47:18 GMT 51.991447 4.973040 10,000 87 281 0
2019-04-26 02:47:15 GMT 51.991261 4.966840 10,000 87 281 0
2019-04-26 02:47:12 GMT 51.991058 4.958725 10,000 87 282 0
2019-04-26 02:47:09 GMT 51.990921 4.952240 10,000 87 283 0
2019-04-26 02:47:06 GMT 51.990738 4.946671 10,000 87 283 0
2019-04-26 02:47:03 GMT 51.990608 4.940944 10,000 87 284 0
2019-04-26 02:47:00 GMT 51.990471 4.934509 10,000 87 285 0
2019-04-26 02:46:57 GMT 51.990280 4.927292 10,000 87 286 0
2019-04-26 02:46:54 GMT 51.990143 4.922104 10,000 87 286 64
2019-04-26 02:46:51 GMT 51.990005 4.916687 10,000 87 286 0
2019-04-26 02:46:48 GMT 51.989777 4.907990 10,000 87 286 64
2019-04-26 02:46:45 GMT 51.989410 4.895325 10,000 87 286 64
2019-04-26 02:46:42 GMT 51.989410 4.895325 10,000 87 286 -64
2019-04-26 02:46:39 GMT 51.989307 4.891035 10,000 87 286 0
2019-04-26 02:46:36 GMT 51.989136 4.883423 10,000 87 286 0
2019-04-26 02:46:33 GMT 51.988979 4.878165 10,000 87 286 -64
2019-04-26 02:46:30 GMT 51.988770 4.871216 10,000 87 286 -64
2019-04-26 02:46:27 GMT 51.988586 4.863815 10,000 87 286 -64
2019-04-26 02:46:24 GMT 51.988403 4.858627 10,000 86 286 -128
2019-04-26 02:46:21 GMT 51.988190 4.851170 10,000 87 287 -64
2019-04-26 02:46:18 GMT 51.987679 4.837202 10,025 86 286 -64
2019-04-26 02:46:15 GMT 51.987679 4.837202 10,025 85 286 0
2019-04-26 02:46:12 GMT 51.987396 4.831009 10,025 85 287 0
2019-04-26 02:46:08 GMT 51.987072 4.824489 10,025 82 286 64
2019-04-26 02:46:05 GMT 51.985886 4.810867 10,025 80 287 128
2019-04-26 02:46:02 GMT 51.985886 4.810867 10,000 69 292 64
2019-04-26 02:45:59 GMT 51.984695 4.802856 10,000 69 292 64
2019-04-26 02:45:56 GMT 51.983459 4.797516 10,000 69 292 64
2019-04-26 02:45:53 GMT 51.980530 4.787521 10,000 58 296 64
2019-04-26 02:45:50 GMT 51.980530 4.787521 10,000 56 297 64
2019-04-26 02:45:47 GMT 51.978226 4.781642 10,000 51 299 -64
2019-04-26 02:45:44 GMT 51.975494 4.775848 10,000 46 302 -64
2019-04-26 02:45:41 GMT 51.972595 4.770656 10,000 45 301 -64
2019-04-26 02:45:38 GMT 51.969009 4.764849 10,000 43 302 0
2019-04-26 02:45:35 GMT 51.965744 4.759903 10,000 43 302 0
2019-04-26 02:45:32 GMT 51.963272 4.756088 10,000 43 302 0
2019-04-26 02:45:29 GMT 51.959652 4.750645 10,000 43 302 0
2019-04-26 02:45:26 GMT 51.957687 4.747696 10,000 43 302 0
2019-04-26 02:45:23 GMT 51.950546 4.736786 10,000 43 302 0
2019-04-26 02:45:20 GMT 51.950546 4.736786 10,000 43 302 0
2019-04-26 02:45:17 GMT 51.948433 4.733616 10,000 43 302 0
2019-04-26 02:45:14 GMT 51.944847 4.728123 10,000 43 302 0
2019-04-26 02:45:11 GMT 51.942333 4.724278 10,000 43 302 0
2019-04-26 02:45:08 GMT 51.939728 4.720276 10,000 43 302 0
2019-04-26 02:45:05 GMT 51.935257 4.713593 10,000 43 302 0
2019-04-26 02:45:02 GMT 51.933304 4.710545 10,000 43 302 -64
2019-04-26 02:44:59 GMT 51.929626 4.704973 10,000 43 302 0
2019-04-26 02:44:56 GMT 51.923950 4.696426 10,000 43 302 0
2019-04-26 02:44:53 GMT 51.923950 4.696426 10,000 43 302 0
2019-04-26 02:44:50 GMT 51.920876 4.691711 10,000 43 302 0
2019-04-26 02:44:47 GMT 51.917725 4.686966 10,000 43 302 0
2019-04-26 02:44:44 GMT 51.911499 4.677505 10,000 43 302 64
2019-04-26 02:44:41 GMT 51.911499 4.677505 10,000 43 300 0
2019-04-26 02:44:38 GMT 51.908569 4.673080 10,000 43 300 0
2019-04-26 02:44:35 GMT 51.905701 4.668719 10,000 43 299 0
2019-04-26 02:44:32 GMT 51.902985 4.664536 10,000 43 299 0
2019-04-26 02:44:29 GMT 51.898994 4.658439 10,000 43 299 0
2019-04-26 02:44:25 GMT 51.896389 4.654436 10,000 43 299 0
2019-04-26 02:44:22 GMT 51.892712 4.648819 10,000 43 300 0
2019-04-26 02:44:19 GMT 51.889114 4.643283 10,000 43 299 0
2019-04-26 02:44:16 GMT 51.886238 4.638901 10,000 43 300 0
2019-04-26 02:44:13 GMT 51.883804 4.635117 10,000 43 300 0
2019-04-26 02:44:10 GMT 51.880096 4.629401 10,000 43 300 0
2019-04-26 02:44:07 GMT 51.874786 4.621201 10,000 43 300 0
2019-04-26 02:44:04 GMT 51.874786 4.621201 10,000 43 300 0
2019-04-26 02:44:01 GMT 51.871342 4.615860 10,000 43 299 0
2019-04-26 02:43:58 GMT 51.869061 4.612350 10,000 43 299 0
2019-04-26 02:43:55 GMT 51.865665 4.607086 10,000 43 299 0
2019-04-26 02:43:52 GMT 51.862335 4.601935 10,000 43 299 0
2019-04-26 02:43:48 GMT 51.857887 4.595108 10,000 43 299 0
2019-04-26 02:43:45 GMT 51.855423 4.591394 10,000 43 299 0
2019-04-26 02:43:42 GMT 51.851746 4.585648 10,000 43 299 0
2019-04-26 02:43:39 GMT 51.849655 4.582487 10,000 43 299 0
2019-04-26 02:43:36 GMT 51.845833 4.576721 10,000 43 299 0
2019-04-26 02:43:33 GMT 51.842697 4.571871 10,000 43 300 -64
2019-04-26 02:43:30 GMT 51.840134 4.568011 10,000 43 300 -64
2019-04-26 02:43:27 GMT 51.836243 4.562073 10,000 43 301 -64
2019-04-26 02:43:24 GMT 51.834801 4.559860 10,000 43 301 -64
2019-04-26 02:43:21 GMT 51.829308 4.551697 10,025 42 302 0
2019-04-26 02:43:18 GMT 51.828327 4.550171 10,000 41 303 64
2019-04-26 02:43:15 GMT 51.825069 4.545364 10,000 42 303 64
2019-04-26 02:43:12 GMT 51.821114 4.539566 10,000 41 303 64
2019-04-26 02:43:09 GMT 51.818298 4.535646 10,000 39 303 64
2019-04-26 02:43:06 GMT 51.815598 4.531935 10,000 35 303 0
2019-04-26 02:43:03 GMT 51.812363 4.527740 10,000 37 303 0
2019-04-26 02:43:00 GMT 51.808914 4.523546 10,000 35 303 0
2019-04-26 02:42:57 GMT 51.805664 4.519909 10,000 33 303 0
2019-04-26 02:42:54 GMT 51.802185 4.516197 10,000 33 302 0
2019-04-26 02:42:50 GMT 51.796764 4.510422 10,000 33 302 0
2019-04-26 02:42:47 GMT 51.793739 4.507217 10,000 33 302 0
2019-04-26 02:42:44 GMT 51.790421 4.503726 10,000 33 302 0
2019-04-26 02:42:41 GMT 51.786804 4.499941 10,000 33 302 0
2019-04-26 02:42:38 GMT 51.779572 4.492295 10,000 33 302 0
2019-04-26 02:42:35 GMT 51.779572 4.492295 10,000 33 302 0
2019-04-26 02:42:32 GMT 51.776596 4.489177 10,000 32 303 0
2019-04-26 02:42:29 GMT 51.772606 4.485016 10,000 32 303 0
2019-04-26 02:42:26 GMT 51.766182 4.478378 10,000 32 304 0
2019-04-26 02:42:23 GMT 51.762550 4.474564 10,000 32 304 0
2019-04-26 02:42:20 GMT 51.762550 4.474564 10,000 32 304 0
2019-04-26 02:42:17 GMT 51.758408 4.470291 10,000 32 306 0
2019-04-26 02:42:14 GMT 51.755196 4.467010 10,000 32 306 0
2019-04-26 02:42:11 GMT 51.750916 4.462602 10,000 32 307 0
2019-04-26 02:42:08 GMT 51.748119 4.459686 10,000 32 309 0
2019-04-26 02:42:05 GMT 51.743362 4.454808 10,000 32 312 0
2019-04-26 02:42:02 GMT 51.740753 4.452061 10,000 32 314 0
2019-04-26 02:41:59 GMT 51.737041 4.448242 10,000 32 315 0
2019-04-26 02:41:56 GMT 51.733566 4.444638 10,000 32 318 0
2019-04-26 02:41:53 GMT 51.725960 4.436722 10,000 32 323 0
2019-04-26 02:41:50 GMT 51.725960 4.436722 10,000 32 325 0
2019-04-26 02:41:47 GMT 51.721630 4.432297 10,000 32 328 0
2019-04-26 02:41:44 GMT 51.718697 4.429245 10,000 32 337 0
2019-04-26 02:41:41 GMT 51.714340 4.424744 10,000 32 335 -64
2019-04-26 02:41:38 GMT 51.709621 4.419861 10,000 32 338 0
2019-04-26 02:41:35 GMT 51.706314 4.416504 10,000 32 340 0
2019-04-26 02:41:32 GMT 51.701523 4.411530 10,000 32 340 0
2019-04-26 02:41:29 GMT 51.698639 4.408561 10,000 32 341 0
2019-04-26 02:41:26 GMT 51.693695 4.403513 10,000 32 341 0
2019-04-26 02:41:23 GMT 51.689743 4.399414 10,000 32 341 0
2019-04-26 02:41:20 GMT 51.686829 4.396461 10,000 32 341 0
2019-04-26 02:41:17 GMT 51.682617 4.392082 10,000 32 340 0
2019-04-26 02:41:14 GMT 51.677361 4.386673 10,000 32 340 0
2019-04-26 02:41:10 GMT 51.673496 4.382706 10,000 32 340 0
2019-04-26 02:41:07 GMT 51.669258 4.378357 10,000 32 340 0
2019-04-26 02:41:04 GMT 51.664856 4.373746 10,000 32 340 0
2019-04-26 02:41:01 GMT 51.662136 4.370956 10,000 32 340 0
2019-04-26 02:40:58 GMT 51.653366 4.361869 10,000 32 340 0
2019-04-26 02:40:55 GMT 51.653366 4.361869 10,000 32 340 0
2019-04-26 02:40:52 GMT 51.648148 4.356524 10,000 32 340 0
2019-04-26 02:40:49 GMT 51.644211 4.352516 10,000 32 341 0
2019-04-26 02:40:46 GMT 51.641602 4.349769 10,000 32 341 0
2019-04-26 02:40:42 GMT 51.636253 4.344330 10,000 32 341 0
2019-04-26 02:40:39 GMT 51.632202 4.340210 10,000 32 342 0
2019-04-26 02:40:36 GMT 51.628201 4.336166 10,000 32 341 0
2019-04-26 02:40:33 GMT 51.623520 4.331360 10,000 32 342 64
2019-04-26 02:40:30 GMT 51.620659 4.328537 10,000 32 343 0
2019-04-26 02:40:27 GMT 51.615829 4.323640 10,000 32 342 64
2019-04-26 02:40:23 GMT 51.611069 4.318848 10,000 31 347 0
2019-04-26 02:40:20 GMT 51.607224 4.315029 10,000 32 346 0
2019-04-26 02:40:17 GMT 51.602737 4.310501 10,000 32 355 0
2019-04-26 02:40:13 GMT 51.597057 4.304733 10,000 31 347 0
2019-04-26 02:40:10 GMT 51.592773 4.300461 10,000 32 349 64
2019-04-26 02:40:07 GMT 51.588722 4.296417 10,000 32 349 64
2019-04-26 02:40:03 GMT 51.583054 4.290681 10,000 32 351 64
2019-04-26 02:40:00 GMT 51.579117 4.286746 10,000 32 352 0
2019-04-26 02:39:57 GMT 51.574387 4.281998 10,000 32 354 0
2019-04-26 02:39:54 GMT 51.570709 4.278183 10,000 32 354 0
2019-04-26 02:39:50 GMT 51.565170 4.272537 10,000 32 355 0
2019-04-26 02:39:47 GMT 51.556465 4.263535 10,000 33 355 0
2019-04-26 02:39:44 GMT 51.556465 4.263535 10,000 33 356 0
2019-04-26 02:39:41 GMT 51.551559 4.258316 10,000 33 357 0
2019-04-26 02:39:38 GMT 51.548813 4.255421 10,000 33 359 0
2019-04-26 02:39:35 GMT 51.544827 4.251251 10,000 33 374 0
2019-04-26 02:39:31 GMT 51.539337 4.245474 10,000 33 364 0
2019-04-26 02:39:28 GMT 51.535191 4.241180 10,000 33 366 -64
2019-04-26 02:39:25 GMT 51.530720 4.236450 10,000 33 371 0
2019-04-26 02:39:21 GMT 51.524574 4.230042 10,000 33 374 0
2019-04-26 02:39:18 GMT 51.519222 4.224396 10,000 33 378 -64
2019-04-26 02:39:15 GMT 51.515625 4.220606 10,000 33 379 -64
2019-04-26 02:39:12 GMT 51.512466 4.217340 10,000 33 382 -64
2019-04-26 02:39:09 GMT 51.507568 4.212218 10,000 33 383 -64
2019-04-26 02:39:05 GMT 51.497498 4.201677 10,025 33 383 -128
2019-04-26 02:39:02 GMT 51.497498 4.201677 10,025 33 383 -128
2019-04-26 02:38:59 GMT 51.492828 4.196777 10,050 33 382 -64
2019-04-26 02:38:55 GMT 51.487705 4.191437 10,050 33 382 0
2019-04-26 02:38:52 GMT 51.482620 4.186162 10,050 33 383 -192
2019-04-26 02:38:49 GMT 51.478024 4.181290 10,050 33 383 -192
2019-04-26 02:38:45 GMT 51.472229 4.175250 10,075 33 383 -256
2019-04-26 02:38:42 GMT 51.467102 4.169905 10,075 33 383 -256
2019-04-26 02:38:39 GMT 51.462662 4.165268 10,100 33 383 -320
2019-04-26 02:38:36 GMT 51.458286 4.160690 10,100 33 384 -384
2019-04-26 02:38:32 GMT 51.452087 4.154242 10,150 33 384 -512
2019-04-26 02:38:29 GMT 51.443527 4.145335 10,175 33 384 -576
2019-04-26 02:38:23 GMT 51.433228 4.134497 10,275 33 385 -768
2019-04-26 02:38:19 GMT 51.433228 4.134497 10,275 33 387 -896
2019-04-26 02:38:16 GMT 51.429470 4.130630 10,300 33 387 -960
2019-04-26 02:38:13 GMT 51.424953 4.125900 10,350 33 388 -1088
2019-04-26 02:38:09 GMT 51.417786 4.118423 10,400 33 389 -1280
2019-04-26 02:38:06 GMT 51.413876 4.114304 10,550 33 390 -1600
2019-04-26 02:38:03 GMT 51.409267 4.109497 11,950 33 383 -3584
2019-04-26 02:38:00 GMT 51.405354 4.105377 10,675 33 390 -1984
2019-04-26 02:37:57 GMT 51.399902 4.099682 10,800 33 389 -2368
2019-04-26 02:37:54 GMT 51.396790 4.096451 10,875 33 389 -2560
2019-04-26 02:37:51 GMT 51.386536 4.085652 11,200 33 386 -3264
2019-04-26 02:37:48 GMT 51.381729 4.080604 11,300 33 384 -3456
2019-04-26 02:37:45 GMT 51.381729 4.080604 11,425 33 383 -3584
2019-04-26 02:37:42 GMT 51.378845 4.077561 11,950 33 378 -4096
2019-04-26 02:37:39 GMT 51.372482 4.070880 11,700 33 380 -3776
2019-04-26 02:37:36 GMT 51.369598 4.067762 11,850 33 378 -3776
2019-04-26 02:37:33 GMT 51.364204 4.062119 13,225 33 382 -3840
2019-04-26 02:37:30 GMT 51.359253 4.056924 12,400 33 379 -4032
2019-04-26 02:37:27 GMT 51.355778 4.053268 12,500 33 379 -4032
2019-04-26 02:37:24 GMT 51.347118 4.044266 13,225 33 382 -3840
2019-04-26 02:37:17 GMT 51.341812 4.038663 13,175 33 382 -3840
2019-04-26 02:37:14 GMT 51.336456 4.033127 13,400 33 383 -3712
2019-04-26 02:37:11 GMT 51.333160 4.029681 13,700 33 385 -3584
2019-04-26 02:37:08 GMT 51.326981 4.023223 13,700 33 385 -3584
2019-04-26 02:37:05 GMT 51.323284 4.019394 14,000 33 388 -3520
2019-04-26 02:37:02 GMT 51.318420 4.014315 14,125 33 388 -3520
2019-04-26 02:36:59 GMT 51.313648 4.009399 14,275 32 391 -3456
2019-04-26 02:36:56 GMT 51.305603 4.001028 15,100 33 398 -3328
2019-04-26 02:36:50 GMT 51.301636 3.996887 14,700 33 394 -3392
2019-04-26 02:36:47 GMT 51.291046 3.985884 15,075 33 397 -3392
2019-04-26 02:36:44 GMT 51.291046 3.985884 15,425 33 398 -3328
2019-04-26 02:36:38 GMT 51.282318 3.976822 15,525 33 401 -3136
2019-04-26 02:36:35 GMT 51.277660 3.971939 15,575 33 403 -3136
2019-04-26 02:36:32 GMT 51.273193 3.967252 16,225 33 412 -3072
2019-04-26 02:36:29 GMT 51.267841 3.961716 16,050 33 408 -3072
2019-04-26 02:36:26 GMT 51.261368 3.954926 16,050 33 409 -3072
2019-04-26 02:36:23 GMT 51.254524 3.947906 16,375 32 414 -3072
2019-04-26 02:36:20 GMT 51.254524 3.947906 16,450 32 415 -3008
2019-04-26 02:36:17 GMT 51.248978 3.942162 16,575 32 418 -2880
2019-04-26 02:36:14 GMT 51.244217 3.937188 16,775 32 420 -2880
2019-04-26 02:36:11 GMT 51.231762 3.924332 17,175 33 423 -2880
2019-04-26 02:36:07 GMT 51.231762 3.924332 16,975 33 425 -2944
2019-04-26 02:36:03 GMT 51.221519 3.913727 17,300 32 430 -3136
2019-04-26 02:35:56 GMT 51.214508 3.906456 17,550 33 432 -3136
2019-04-26 02:35:53 GMT 51.208557 3.900295 17,800 32 436 -3264
2019-04-26 02:35:49 GMT 51.201553 3.893094 18,000 32 438 -3264
2019-04-26 02:35:46 GMT 51.192287 3.883591 18,250 32 441 -3392
2019-04-26 02:35:43 GMT 51.188190 3.879395 18,350 32 442 -3392
2019-04-26 02:35:40 GMT 51.188190 3.879395 18,700 32 449 -3392
2019-04-26 02:35:37 GMT 51.181778 3.872755 18,650 32 446 -3456
2019-04-26 02:35:34 GMT 51.176552 3.867416 18,750 32 447 -3520
2019-04-26 02:35:31 GMT 51.172531 3.863253 19,050 32 451 -3264
2019-04-26 02:35:28 GMT 51.165710 3.856275 19,175 32 452 -3264
2019-04-26 02:35:25 GMT 51.161888 3.852310 19,275 32 453 -3264
2019-04-26 02:35:22 GMT 51.151600 3.841782 19,575 32 457 -3200
2019-04-26 02:35:15 GMT 51.143875 3.833783 19,850 33 460 -3264
2019-04-26 02:35:12 GMT 51.139355 3.829193 19,950 32 461 -3328
2019-04-26 02:35:09 GMT 51.133850 3.823465 20,150 32 463 -3456
2019-04-26 02:35:06 GMT 51.127346 3.816757 20,425 32 464 -3712
2019-04-26 02:35:03 GMT 51.121582 3.810845 20,575 32 465 -3840
2019-04-26 02:35:00 GMT 51.117661 3.806763 21,075 32 467 -3840
2019-04-26 02:34:57 GMT 51.111374 3.800305 21,425 32 468 -3776
2019-04-26 02:34:54 GMT 51.105469 3.794217 21,275 33 467 -3840
2019-04-26 02:34:51 GMT 51.099838 3.788427 22,900 32 469 -3776
2019-04-26 02:34:47 GMT 51.090820 3.779074 21,650 32 469 -3712
2019-04-26 02:34:44 GMT 51.085403 3.773575 21,725 32 470 -3648
2019-04-26 02:34:41 GMT 51.081665 3.769721 21,875 32 471 -3648
2019-04-26 02:34:38 GMT 51.077301 3.765182 22,100 32 472 -3584
2019-04-26 02:34:35 GMT 51.070740 3.758469 22,325 32 474 -3328
2019-04-26 02:34:32 GMT 51.065094 3.752648 22,500 32 475 -3136
2019-04-26 02:34:29 GMT 51.059704 3.747177 22,575 32 475 -3072
2019-04-26 02:34:26 GMT 51.048626 3.735809 22,850 32 479 -2880
2019-04-26 02:34:23 GMT 51.048626 3.735809 22,925 32 480 -2688
2019-04-26 02:34:20 GMT 51.043270 3.730316 23,000 33 480 -2560
2019-04-26 02:34:17 GMT 51.036522 3.723373 23,400 32 483 -2432
2019-04-26 02:34:14 GMT 51.032612 3.719406 23,275 32 482 -2560
2019-04-26 02:34:11 GMT 51.026962 3.713602 23,475 32 483 -2432
2019-04-26 02:34:08 GMT 51.020508 3.706970 23,550 32 483 -2368
2019-04-26 02:34:05 GMT 51.007984 3.694153 23,775 32 485 -2688
2019-04-26 02:34:02 GMT 51.007984 3.694153 23,850 32 485 -2752
2019-04-26 02:33:56 GMT 50.998581 3.684464 24,100 32 487 -2496
2019-04-26 02:33:53 GMT 50.992401 3.678193 24,175 32 488 -2496
2019-04-26 02:33:50 GMT 50.986542 3.672180 24,275 32 488 -2496
2019-04-26 02:33:47 GMT 50.975819 3.661194 24,525 32 489 -2496
2019-04-26 02:33:44 GMT 50.975819 3.661194 24,525 32 489 -2496
2019-04-26 02:33:41 GMT 50.969925 3.655181 24,725 32 490 -2496
2019-04-26 02:33:38 GMT 50.964111 3.649168 24,725 32 490 -2496
2019-04-26 02:33:34 GMT 50.956741 3.641597 24,950 32 492 -2496
2019-04-26 02:33:31 GMT 50.951099 3.635864 25,100 32 494 -2432
2019-04-26 02:33:28 GMT 50.944061 3.628680 25,300 32 494 -2560
2019-04-26 02:33:25 GMT 50.937412 3.621902 25,400 32 494 -2624
2019-04-26 02:33:22 GMT 50.933872 3.618317 25,500 32 495 -2560
2019-04-26 02:33:19 GMT 50.928196 3.612518 25,525 32 496 -2368
2019-04-26 02:33:16 GMT 50.922890 3.607101 25,625 32 497 -2368
2019-04-26 02:33:13 GMT 50.915394 3.599472 25,850 32 498 -2432
2019-04-26 02:33:10 GMT 50.909866 3.593791 25,900 32 499 -2432
2019-04-26 02:33:07 GMT 50.904312 3.588181 26,000 32 499 -2432
2019-04-26 02:33:04 GMT 50.898262 3.582001 26,175 32 500 -2496
2019-04-26 02:33:01 GMT 50.893421 3.577118 26,575 32 503 -2496
2019-04-26 02:32:58 GMT 50.888252 3.571854 26,600 32 502 -2496
2019-04-26 02:32:55 GMT 50.880108 3.563538 26,975 32 504 -2432
2019-04-26 02:32:52 GMT 50.873962 3.557281 26,725 32 504 -2432
2019-04-26 02:32:46 GMT 50.863770 3.546951 26,975 32 505 -2432
2019-04-26 02:32:43 GMT 50.857635 3.540641 27,025 32 505 -2368
2019-04-26 02:32:40 GMT 50.852600 3.535519 27,125 32 506 -2368
2019-04-26 02:32:37 GMT 50.837883 3.520584 27,325 32 507 -2432
2019-04-26 02:32:34 GMT 50.837883 3.520584 27,450 32 508 -2368
2019-04-26 02:32:31 GMT 50.833008 3.515625 27,475 32 508 -2432
2019-04-26 02:32:28 GMT 50.828156 3.510666 27,625 32 508 -2432
2019-04-26 02:32:25 GMT 50.816189 3.498535 27,800 32 508 -2432
2019-04-26 02:32:22 GMT 50.816189 3.498535 27,875 32 508 -2368
2019-04-26 02:32:19 GMT 50.808197 3.490460 27,950 32 508 -2368
2019-04-26 02:32:16 GMT 50.804413 3.486633 28,025 32 507 -2368
2019-04-26 02:32:13 GMT 50.792862 3.474946 28,300 32 506 -2560
2019-04-26 02:32:10 GMT 50.784576 3.466483 28,475 32 506 -2624
2019-04-26 02:32:07 GMT 50.784576 3.466483 28,525 32 505 -2624
2019-04-26 02:32:04 GMT 50.780228 3.462104 28,625 32 505 -2688
2019-04-26 02:32:01 GMT 50.773502 3.455276 28,750 32 504 -2496
2019-04-26 02:31:58 GMT 50.762890 3.444595 28,950 32 503 -1280
2019-04-26 02:31:55 GMT 50.762890 3.444595 29,000 32 503 -768
2019-04-26 02:31:52 GMT 50.757954 3.439560 29,025 32 502 -576
2019-04-26 02:31:49 GMT 50.750877 3.432388 29,025 32 502 -320
2019-04-26 02:31:46 GMT 50.746128 3.427582 29,050 32 502 -256
2019-04-26 02:31:43 GMT 50.737377 3.418732 29,075 32 502 -320
2019-04-26 02:31:40 GMT 50.733421 3.414688 29,075 32 502 -384
2019-04-26 02:31:37 GMT 50.726345 3.407593 29,100 32 503 -448
2019-04-26 02:31:34 GMT 50.722713 3.403931 29,175 32 504 -832
2019-04-26 02:31:31 GMT 50.717499 3.398666 29,125 32 503 -704
2019-04-26 02:31:28 GMT 50.710468 3.391571 29,200 32 505 -1088
2019-04-26 02:31:25 GMT 50.704834 3.385868 29,250 32 505 -1216
2019-04-26 02:31:21 GMT 50.697109 3.378067 29,300 32 506 -1664
2019-04-26 02:31:18 GMT 50.690689 3.371615 29,425 32 507 -2048
2019-04-26 02:31:15 GMT 50.685150 3.366048 29,525 32 506 -2304
2019-04-26 02:31:11 GMT 50.677464 3.358307 29,875 32 507 -2624
2019-04-26 02:31:08 GMT 50.670181 3.350975 29,900 32 507 -2624
2019-04-26 02:31:05 GMT 50.666340 3.347118 29,975 32 507 -2688
2019-04-26 02:31:02 GMT 50.659866 3.340660 30,100 32 506 -2752
2019-04-26 02:30:59 GMT 50.653198 3.333989 30,200 32 506 -2816
2019-04-26 02:30:56 GMT 50.646042 3.326779 30,475 32 504 -2816
2019-04-26 02:30:53 GMT 50.640083 3.320766 30,575 32 504 -2816
2019-04-26 02:30:50 GMT 50.635941 3.316609 30,650 32 504 -2816
2019-04-26 02:30:47 GMT 50.629761 3.310354 30,800 32 503 -2752
2019-04-26 02:30:44 GMT 50.623489 3.304066 30,975 32 503 -2752
2019-04-26 02:30:41 GMT 50.616669 3.297235 31,050 32 503 -2752
2019-04-26 02:30:38 GMT 50.612411 3.292935 31,225 32 502 -2688
2019-04-26 02:30:35 GMT 50.605270 3.285779 32,300 32 503 -2816
2019-04-26 02:30:32 GMT 50.599304 3.279790 31,525 32 503 -2752
2019-04-26 02:30:29 GMT 50.593716 3.274148 31,675 32 503 -2688
2019-04-26 02:30:26 GMT 50.589569 3.269950 31,825 32 501 -2560
2019-04-26 02:30:23 GMT 50.582729 3.263088 31,925 32 500 -2560
2019-04-26 02:30:20 GMT 50.575142 3.255442 32,050 32 498 -2368
2019-04-26 02:30:17 GMT 50.571075 3.251375 32,250 32 498 -1728
2019-04-26 02:30:14 GMT 50.565228 3.245495 32,225 32 497 -1408
2019-04-26 02:30:11 GMT 50.559456 3.239705 32,275 32 497 -1344
2019-04-26 02:30:08 GMT 50.553867 3.234063 32,325 32 497 -832
2019-04-26 02:30:05 GMT 50.548050 3.228273 32,350 32 497 -256
2019-04-26 02:30:02 GMT 50.541458 3.221596 32,250 32 503 -640
2019-04-26 02:29:59 GMT 50.535294 3.215505 32,300 32 499 832
2019-04-26 02:29:56 GMT 50.530128 3.210309 32,250 32 499 896
2019-04-26 02:29:53 GMT 50.523880 3.204032 32,225 32 500 1024
2019-04-26 02:29:50 GMT 50.519714 3.199913 32,200 32 501 960
2019-04-26 02:29:47 GMT 50.512665 3.192829 32,150 32 503 448
2019-04-26 02:29:44 GMT 50.505661 3.185818 32,125 32 504 -192
2019-04-26 02:29:40 GMT 50.498749 3.178983 32,175 32 502 -576
2019-04-26 02:29:37 GMT 50.493164 3.173341 32,175 32 502 -256
2019-04-26 02:29:34 GMT 50.487206 3.167403 32,175 32 502 192
2019-04-26 02:29:31 GMT 50.481262 3.161460 32,125 32 499 1088
2019-04-26 02:29:28 GMT 50.475128 3.155389 31,400 32 500 1664
2019-04-26 02:29:25 GMT 50.469360 3.149607 31,425 32 500 2176
2019-04-26 02:29:21 GMT 50.455734 3.136077 31,775 32 499 2368
2019-04-26 02:29:18 GMT 50.455734 3.136077 31,725 32 499 2432
2019-04-26 02:29:15 GMT 50.450043 3.130453 31,575 32 499 2432
2019-04-26 02:29:11 GMT 50.436951 3.117443 31,475 32 500 2176
2019-04-26 02:29:08 GMT 50.436951 3.117443 31,325 32 500 1536
2019-04-26 02:29:05 GMT 50.431595 3.112094 31,300 32 499 1152
2019-04-26 02:29:02 GMT 50.424820 3.105372 31,250 32 498 896
2019-04-26 02:28:59 GMT 50.419472 3.100075 31,250 32 497 896
2019-04-26 02:28:56 GMT 50.412872 3.093591 31,150 32 493 896
2019-04-26 02:28:53 GMT 50.407368 3.088123 31,150 32 493 896
2019-04-26 02:28:50 GMT 50.401794 3.082677 31,100 32 492 896
2019-04-26 02:28:47 GMT 50.395844 3.076822 31,050 32 491 960
2019-04-26 02:28:44 GMT 50.382137 3.063404 30,500 31 492 4608
2019-04-26 02:28:41 GMT 50.382137 3.063404 30,925 31 487 2112
2019-04-26 02:28:38 GMT 50.378815 3.060126 30,850 31 487 2240
2019-04-26 02:28:35 GMT 50.373756 3.055238 30,800 31 488 2816
2019-04-26 02:28:32 GMT 50.366123 3.047741 30,425 31 491 4352
2019-04-26 02:28:29 GMT 50.362911 3.044623 30,250 31 493 4736
2019-04-26 02:28:26 GMT 50.355881 3.037794 30,150 31 495 5184
2019-04-26 02:28:23 GMT 50.340195 3.022502 29,575 31 505 5760
2019-04-26 02:28:19 GMT 50.340195 3.022502 29,575 31 505 5760
2019-04-26 02:28:16 GMT 50.334373 3.016861 29,000 32 510 5376
2019-04-26 02:28:10 GMT 50.318081 3.000975 28,450 32 521 3584
2019-04-26 02:28:07 GMT 50.318081 3.000975 28,450 32 521 3584
2019-04-26 02:28:03 GMT 50.304859 2.988059 28,175 32 523 3008
2019-04-26 02:28:00 GMT 50.304859 2.988059 28,100 31 524 2752
2019-04-26 02:27:57 GMT 50.297783 2.981155 27,750 32 526 2432
2019-04-26 02:27:54 GMT 50.291965 2.975439 27,825 32 526 2432
2019-04-26 02:27:51 GMT 50.283279 2.966959 27,650 32 526 2432
2019-04-26 02:27:48 GMT 50.278976 2.962767 27,525 32 527 2368
2019-04-26 02:27:44 GMT 50.270321 2.954283 27,450 32 527 2368
2019-04-26 02:27:41 GMT 50.264545 2.948567 27,325 32 527 2304
2019-04-26 02:27:38 GMT 50.258331 2.942457 27,050 32 527 2176
2019-04-26 02:27:34 GMT 50.248764 2.932978 26,975 32 527 2048
2019-04-26 02:27:31 GMT 50.244736 2.928941 27,000 32 528 1920
2019-04-26 02:27:28 GMT 50.230797 2.914792 26,600 33 525 1408
2019-04-26 02:27:25 GMT 50.230797 2.914792 26,775 33 525 1408
2019-04-26 02:27:22 GMT 50.225395 2.909298 26,025 33 525 1408
2019-04-26 02:27:18 GMT 50.218277 2.901908 26,025 33 516 0
2019-04-26 02:27:14 GMT 50.209846 2.893190 26,525 33 523 1280
2019-04-26 02:27:11 GMT 50.202026 2.885068 26,425 33 522 1344
2019-04-26 02:27:08 GMT 50.197998 2.880875 26,125 33 522 1664
2019-04-26 02:27:04 GMT 50.182755 2.865130 26,225 33 522 1728
2019-04-26 02:26:58 GMT 50.177029 2.859192 26,125 33 523 1472
2019-04-26 02:26:55 GMT 50.171082 2.852976 26,050 33 523 1088
2019-04-26 02:26:52 GMT 50.164810 2.846543 26,050 33 521 704
2019-04-26 02:26:49 GMT 50.158779 2.840263 26,025 33 523 128
2019-04-26 02:26:46 GMT 50.153091 2.834328 26,000 33 522 0
2019-04-26 02:26:42 GMT 50.145401 2.826377 26,000 33 521 0
2019-04-26 02:26:39 GMT 50.133038 2.813613 26,025 33 522 -64
2019-04-26 02:26:36 GMT 50.133038 2.813613 26,000 33 522 -64
2019-04-26 02:26:33 GMT 50.125763 2.806067 26,025 33 522 -64
2019-04-26 02:26:30 GMT 50.121368 2.801514 26,025 33 521 -64
2019-04-26 02:26:27 GMT 50.109062 2.788746 26,025 33 520 0
2019-04-26 02:26:24 GMT 50.109062 2.788746 26,025 33 520 0
2019-04-26 02:26:21 GMT 50.103607 2.783155 26,025 33 518 0
2019-04-26 02:26:17 GMT 50.095284 2.774493 26,025 33 516 0
2019-04-26 02:26:14 GMT 50.088253 2.767219 26,025 33 516 0
2019-04-26 02:26:11 GMT 50.082664 2.761503 26,025 33 515 0
2019-04-26 02:26:08 GMT 50.077267 2.755935 26,025 33 515 -64
2019-04-26 02:26:04 GMT 50.066650 2.744875 26,025 33 514 -64
2019-04-26 02:26:01 GMT 50.063599 2.741739 26,025 33 512 -64
2019-04-26 02:25:58 GMT 50.051834 2.729597 26,025 33 511 -64
2019-04-26 02:25:55 GMT 50.051834 2.729597 26,025 33 510 0
2019-04-26 02:25:52 GMT 50.045006 2.722531 26,025 33 509 0
2019-04-26 02:25:49 GMT 50.039154 2.716514 26,025 33 506 0
2019-04-26 02:25:46 GMT 50.034439 2.711672 26,025 33 506 0
2019-04-26 02:25:43 GMT 50.027390 2.704371 25,350 33 466 1728
2019-04-26 02:25:37 GMT 50.016701 2.693358 26,025 33 495 -64
2019-04-26 02:25:34 GMT 50.011627 2.688161 26,025 33 498 -64
2019-04-26 02:25:31 GMT 49.995289 2.671311 26,025 33 495 -64
2019-04-26 02:25:26 GMT 49.995289 2.671311 26,025 33 493 -128
2019-04-26 02:25:23 GMT 49.989563 2.665372 26,025 33 487 -64
2019-04-26 02:25:20 GMT 49.984161 2.659805 26,025 33 485 0
2019-04-26 02:25:16 GMT 49.976715 2.652159 26,025 33 481 128
2019-04-26 02:25:13 GMT 49.969128 2.644365 26,025 33 479 320
2019-04-26 02:25:10 GMT 49.965309 2.640430 26,000 33 478 448
2019-04-26 02:25:06 GMT 49.957581 2.632562 25,975 33 476 832
2019-04-26 02:25:03 GMT 49.951248 2.626029 25,900 33 474 960
2019-04-26 02:25:00 GMT 49.944313 2.618903 25,875 33 473 896
2019-04-26 02:24:57 GMT 49.935699 2.610069 25,825 33 472 896
2019-04-26 02:24:50 GMT 49.928623 2.602869 25,650 33 469 1216
2019-04-26 02:24:46 GMT 49.921501 2.595594 25,625 33 468 1344
2019-04-26 02:24:43 GMT 49.915775 2.589730 25,575 33 467 1408
2019-04-26 02:24:40 GMT 49.911346 2.585184 25,500 33 466 1536
2019-04-26 02:24:36 GMT 49.896515 2.570006 25,275 33 465 1728
2019-04-26 02:24:32 GMT 49.896515 2.570006 25,275 33 465 1664
2019-04-26 02:24:29 GMT 49.891289 2.564640 25,200 33 463 1152
2019-04-26 02:24:26 GMT 49.885612 2.558775 25,125 33 464 1280
2019-04-26 02:24:23 GMT 49.880909 2.554024 24,925 33 453 384
2019-04-26 02:24:20 GMT 49.875137 2.548086 25,025 33 460 896
2019-04-26 02:24:17 GMT 49.869553 2.542395 25,000 33 460 704
2019-04-26 02:24:14 GMT 49.864151 2.536877 24,900 33 456 384
2019-04-26 02:24:10 GMT 49.857376 2.529891 24,575 33 443 1536
2019-04-26 02:24:06 GMT 49.849731 2.522085 24,900 33 450 448
2019-04-26 02:24:03 GMT 49.846207 2.518471 24,900 33 449 448
2019-04-26 02:23:59 GMT 49.839157 2.511243 24,875 33 447 896
2019-04-26 02:23:56 GMT 49.832520 2.504449 24,825 33 445 1216
2019-04-26 02:23:53 GMT 49.827282 2.499093 24,725 33 445 1472
2019-04-26 02:23:50 GMT 49.821991 2.493680 24,675 33 444 1536
2019-04-26 02:23:47 GMT 49.817039 2.488552 24,500 33 442 1472
2019-04-26 02:23:43 GMT 49.811096 2.482476 24,525 33 442 1472
2019-04-26 02:23:40 GMT 49.806007 2.477269 24,375 33 441 1536
2019-04-26 02:23:37 GMT 49.798416 2.469474 24,300 33 440 1472
2019-04-26 02:23:34 GMT 49.794846 2.465852 24,250 33 440 1408
2019-04-26 02:23:31 GMT 49.789490 2.460359 24,150 33 439 1408
2019-04-26 02:23:28 GMT 49.784866 2.455589 24,125 33 439 1152
2019-04-26 02:23:25 GMT 49.780449 2.451065 24,050 33 439 832
2019-04-26 02:23:22 GMT 49.776073 2.446611 24,025 33 439 256
2019-04-26 02:23:18 GMT 49.768345 2.438594 24,000 33 437 64
2019-04-26 02:23:15 GMT 49.763226 2.433323 24,000 33 437 0
2019-04-26 02:23:12 GMT 49.759083 2.429092 24,000 33 437 0
2019-04-26 02:23:08 GMT 49.751587 2.421372 24,000 33 437 0
2019-04-26 02:23:04 GMT 49.744904 2.414462 24,000 33 437 0
2019-04-26 02:23:01 GMT 49.738087 2.407416 24,000 33 436 0
2019-04-26 02:22:58 GMT 49.734501 2.403705 24,000 33 426 768
2019-04-26 02:22:55 GMT 49.729286 2.398360 24,000 33 435 0
2019-04-26 02:22:52 GMT 49.724579 2.393502 24,000 33 435 0
2019-04-26 02:22:49 GMT 49.718815 2.387522 24,000 33 434 -64
2019-04-26 02:22:45 GMT 49.712624 2.381138 24,000 33 433 -64
2019-04-26 02:22:42 GMT 49.707733 2.376165 24,025 33 432 0
2019-04-26 02:22:39 GMT 49.702194 2.370449 24,025 33 430 128
2019-04-26 02:22:36 GMT 49.697113 2.365313 24,000 33 429 256
2019-04-26 02:22:29 GMT 49.686493 2.354471 23,975 33 426 640
2019-04-26 02:22:26 GMT 49.681759 2.349738 23,900 33 424 960
2019-04-26 02:22:23 GMT 49.675873 2.343774 23,875 32 424 1088
2019-04-26 02:22:19 GMT 49.664951 2.332887 23,750 32 421 1472
2019-04-26 02:22:16 GMT 49.664951 2.332887 23,700 32 421 1728
2019-04-26 02:22:12 GMT 49.658901 2.326949 23,625 32 421 1728
2019-04-26 02:22:09 GMT 49.652802 2.320936 23,475 31 419 1664
2019-04-26 02:22:06 GMT 49.643398 2.311954 23,325 30 419 1536
2019-04-26 02:22:03 GMT 49.643398 2.311954 23,350 26 418 1344
2019-04-26 02:21:59 GMT 49.636505 2.306262 23,275 24 417 1280
2019-04-26 02:21:56 GMT 49.631248 2.302452 23,225 21 414 1280
2019-04-26 02:21:53 GMT 49.625885 2.299106 23,025 5 406 1600
2019-04-26 02:21:49 GMT 49.617737 2.294914 23,050 11 409 1536
2019-04-26 02:21:46 GMT 49.612396 2.292654 23,000 12 409 1472
2019-04-26 02:21:42 GMT 49.606659 2.290649 22,925 9 409 1600
2019-04-26 02:21:38 GMT 49.599289 2.288698 22,800 6 405 1600
2019-04-26 02:21:35 GMT 49.593658 2.287758 21,375 349 387 2304
2019-04-26 02:21:32 GMT 49.588120 2.287108 22,700 2 403 1472
2019-04-26 02:21:28 GMT 49.580887 2.286963 22,600 358 399 1408
2019-04-26 02:21:25 GMT 49.573151 2.287457 22,475 355 397 1536
2019-04-26 02:21:22 GMT 49.569286 2.287977 22,425 354 397 1664
2019-04-26 02:21:18 GMT 49.555740 2.290946 22,225 349 394 1856
2019-04-26 02:21:12 GMT 49.551273 2.292357 22,100 349 392 1920
2019-04-26 02:21:08 GMT 49.544037 2.294625 21,625 349 388 2112
2019-04-26 02:21:05 GMT 49.538006 2.296588 21,900 349 391 1984
2019-04-26 02:21:02 GMT 49.533070 2.298147 21,650 349 389 1984
2019-04-26 02:20:58 GMT 49.526505 2.300262 21,600 349 388 2112
2019-04-26 02:20:55 GMT 49.520222 2.302230 21,525 349 389 2048
2019-04-26 02:20:52 GMT 49.515015 2.303949 21,475 349 388 2112
2019-04-26 02:20:48 GMT 49.508537 2.306015 21,275 349 388 2304
2019-04-26 02:20:45 GMT 49.500858 2.308465 21,125 349 387 2304
2019-04-26 02:20:41 GMT 49.496567 2.309803 21,025 349 387 2304
2019-04-26 02:20:38 GMT 49.490021 2.311899 20,875 349 387 2240
2019-04-26 02:20:33 GMT 49.481689 2.314574 20,750 349 386 2176
2019-04-26 02:20:30 GMT 49.478138 2.315740 20,625 349 385 2176
2019-04-26 02:20:27 GMT 49.465851 2.319705 20,425 349 384 2112
2019-04-26 02:20:24 GMT 49.465851 2.319705 20,275 349 384 2112
2019-04-26 02:20:21 GMT 49.460129 2.321512 20,275 349 383 2176
2019-04-26 02:20:17 GMT 49.454304 2.323386 20,150 349 383 2240
2019-04-26 02:20:13 GMT 49.446438 2.325910 19,925 349 382 2304
2019-04-26 02:20:07 GMT 49.437405 2.328805 19,625 349 381 2240
2019-04-26 02:20:04 GMT 49.430889 2.330883 19,650 349 381 2176
2019-04-26 02:20:01 GMT 49.427258 2.332065 19,575 349 380 2176
2019-04-26 02:19:57 GMT 49.419342 2.334595 19,400 349 378 2112
2019-04-26 02:19:52 GMT 49.410267 2.337486 19,200 349 376 2048
2019-04-26 02:19:49 GMT 49.406158 2.338820 19,150 349 375 2112
2019-04-26 02:19:46 GMT 49.402039 2.340088 18,825 349 374 2496
2019-04-26 02:19:42 GMT 49.393505 2.342834 18,900 349 374 2496
2019-04-26 02:19:39 GMT 49.390156 2.343919 18,775 349 374 2752
2019-04-26 02:19:35 GMT 49.383221 2.346159 18,575 349 373 2880
2019-04-26 02:19:32 GMT 49.378143 2.347749 18,450 349 372 3008
2019-04-26 02:19:29 GMT 49.372238 2.349666 18,350 349 371 3072
2019-04-26 02:19:24 GMT 49.361572 2.353046 17,875 349 370 3136
2019-04-26 02:19:21 GMT 49.359104 2.353821 17,850 349 369 3136
2019-04-26 02:19:18 GMT 49.354774 2.355194 17,700 349 369 3136
2019-04-26 02:19:15 GMT 49.348801 2.357060 17,525 349 368 3008
2019-04-26 02:19:12 GMT 49.343765 2.358610 17,375 349 367 2944
2019-04-26 02:19:09 GMT 49.337925 2.360470 17,200 350 366 2880
2019-04-26 02:19:06 GMT 49.333641 2.361699 17,075 351 366 2880
2019-04-26 02:19:03 GMT 49.328381 2.363145 16,850 352 364 2944
2019-04-26 02:19:00 GMT 49.323399 2.364373 16,850 352 364 2944
2019-04-26 02:18:56 GMT 49.316837 2.365819 16,575 353 363 3200
2019-04-26 02:18:53 GMT 49.312180 2.366709 16,100 354 363 3328
2019-04-26 02:18:50 GMT 49.306873 2.367626 16,250 355 362 3264
2019-04-26 02:18:46 GMT 49.299938 2.368710 16,000 356 362 3136
2019-04-26 02:18:43 GMT 49.294098 2.369385 15,850 357 361 3072
2019-04-26 02:18:39 GMT 49.289795 2.369878 13,300 0 346 3136
2019-04-26 02:18:35 GMT 49.282562 2.370441 15,500 358 359 3008
2019-04-26 02:18:31 GMT 49.275124 2.370806 15,200 0 358 3072
2019-04-26 02:18:28 GMT 49.269745 2.370934 15,100 0 357 3136
2019-04-26 02:18:25 GMT 49.265816 2.370951 14,925 0 356 3264
2019-04-26 02:18:22 GMT 49.261002 2.371005 14,775 0 355 3136
2019-04-26 02:18:19 GMT 49.254364 2.371075 14,600 0 355 3136
2019-04-26 02:18:15 GMT 49.248589 2.371095 14,425 0 353 3008
2019-04-26 02:18:11 GMT 49.243195 2.371145 14,275 0 352 2880
2019-04-26 02:18:07 GMT 49.236019 2.371095 14,050 0 350 2816
2019-04-26 02:18:04 GMT 49.228664 2.371095 13,850 0 347 2880
2019-04-26 02:18:00 GMT 49.219345 2.370934 13,675 0 345 3264
2019-04-26 02:17:57 GMT 49.219345 2.370934 13,525 0 345 3392
2019-04-26 02:17:53 GMT 49.213440 2.370793 13,375 0 344 3648
2019-04-26 02:17:49 GMT 49.207901 2.370652 13,125 0 344 4032
2019-04-26 02:17:46 GMT 49.202690 2.370517 12,900 0 345 4224
2019-04-26 02:17:43 GMT 49.196960 2.370371 12,600 0 346 4288
2019-04-26 02:17:39 GMT 49.191471 2.370228 12,400 0 346 4160
2019-04-26 02:17:36 GMT 49.186615 2.370159 12,150 0 347 3840
2019-04-26 02:17:33 GMT 49.179428 2.370159 11,900 0 346 3136
2019-04-26 02:17:30 GMT 49.176342 2.370228 11,800 0 344 2624
2019-04-26 02:17:27 GMT 49.172241 2.370300 11,750 359 343 2496
2019-04-26 02:17:24 GMT 49.166656 2.370517 11,575 359 338 1728
2019-04-26 02:17:20 GMT 49.161118 2.370793 11,500 358 332 1536
2019-04-26 02:17:17 GMT 49.155945 2.371145 11,450 358 331 1536
2019-04-26 02:17:14 GMT 49.151390 2.371457 11,325 357 323 1600
2019-04-26 02:17:08 GMT 49.143860 2.372131 11,175 357 316 1664
2019-04-26 02:17:05 GMT 49.139236 2.372554 11,125 357 314 1792
2019-04-26 02:17:01 GMT 49.131557 2.373119 10,900 359 305 1984
2019-04-26 02:16:58 GMT 49.127880 2.373336 10,825 0 303 2048
2019-04-26 02:16:53 GMT 49.121456 2.373481 10,675 0 297 2368
2019-04-26 02:16:49 GMT 49.114700 2.373258 10,450 1 294 2688
2019-04-26 02:16:46 GMT 49.110901 2.373047 10,400 2 292 2944
2019-04-26 02:16:43 GMT 49.107910 2.372830 10,325 2 291 3200
2019-04-26 02:16:40 GMT 49.103256 2.372413 9,900 4 289 3712
2019-04-26 02:16:37 GMT 49.099136 2.371920 9,800 4 289 3712
2019-04-26 02:16:33 GMT 49.094315 2.371312 9,700 4 289 3712
2019-04-26 02:16:29 GMT 49.088974 2.370793 9,250 359 288 3520
2019-04-26 02:16:26 GMT 49.079746 2.371384 9,025 353 286 3456
2019-04-26 02:16:23 GMT 49.079746 2.371384 8,850 350 285 3392
2019-04-26 02:16:20 GMT 49.075741 2.372396 8,775 347 284 3264
2019-04-26 02:16:17 GMT 49.072723 2.373540 8,625 344 281 3008
2019-04-26 02:16:14 GMT 49.070293 2.374637 8,575 341 280 2944
2019-04-26 02:16:11 GMT 49.066711 2.376444 8,475 339 277 2944
2019-04-26 02:16:08 GMT 49.060658 2.380492 8,200 334 273 3136
2019-04-26 02:16:04 GMT 49.058029 2.382554 7,925 328 269 3200
2019-04-26 02:16:01 GMT 49.054977 2.385406 7,850 327 268 3264
2019-04-26 02:15:57 GMT 49.050369 2.390321 7,625 322 265 3520
2019-04-26 02:15:54 GMT 49.048508 2.392634 7,575 319 263 3584
2019-04-26 02:15:51 GMT 49.045250 2.397260 7,225 313 260 4224
2019-04-26 02:15:47 GMT 49.041916 2.403189 6,925 307 259 4416
2019-04-26 02:15:44 GMT 49.039757 2.407885 6,700 304 259 3904
2019-04-26 02:15:41 GMT 49.038452 2.410849 6,575 304 259 3776
2019-04-26 02:15:37 GMT 49.035194 2.418365 6,300 304 256 3136
2019-04-26 02:15:34 GMT 49.033310 2.422626 6,125 305 253 2624
2019-04-26 02:15:31 GMT 49.031284 2.427111 6,050 305 249 2048
2019-04-26 02:15:27 GMT 49.029053 2.432204 5,675 305 244 1984
2019-04-26 02:15:24 GMT 49.026768 2.437375 5,800 305 240 2368
2019-04-26 02:15:20 GMT 49.024628 2.442073 5,725 305 238 2496
2019-04-26 02:15:17 GMT 49.022736 2.446289 5,425 305 212 1856
2019-04-26 02:15:13 GMT 49.019646 2.453059 5,275 305 229 2560
2019-04-26 02:15:06 GMT 49.016109 2.460865 5,075 305 223 2112
2019-04-26 02:15:01 GMT 49.012615 2.468599 4,850 305 212 1856
2019-04-26 02:14:57 GMT 49.010284 2.473684 4,725 306 202 1792
2019-04-26 02:14:54 GMT 49.008865 2.476783 4,650 306 202 1792
2019-04-26 02:14:50 GMT 49.007030 2.480742 4,550 307 197 1664
2019-04-26 02:14:47 GMT 49.004745 2.485234 4,450 311 192 1792
2019-04-26 02:14:44 GMT 49.003632 2.487247 4,375 312 189 1856
2019-04-26 02:14:40 GMT 49.001358 2.491079 4,250 311 183 1664
2019-04-26 02:14:36 GMT 48.998932 2.495446 4,125 305 171 1600
2019-04-26 02:14:33 GMT 48.996136 2.501630 4,025 301 167 1856
2019-04-26 02:14:30 GMT 48.996136 2.501630 3,950 297 163 2176
2019-04-26 02:14:26 GMT 48.994904 2.505305 3,800 287 159 2624
2019-04-26 02:14:23 GMT 48.994308 2.508052 3,725 281 157 2880
2019-04-26 02:14:20 GMT 48.993855 2.511749 3,525 270 154 3072
2019-04-26 02:14:16 GMT 48.993942 2.517066 3,275 265 152 3136
2019-04-26 02:14:13 GMT 48.994080 2.519390 3,150 265 153 3136
2019-04-26 02:14:10 GMT 48.994324 2.522663 3,000 265 153 3136
2019-04-26 02:14:05 GMT 48.994675 2.527771 2,750 265 153 2944
2019-04-26 02:14:01 GMT 48.994972 2.532855 2,525 264 151 2816
2019-04-26 02:13:53 GMT 48.995544 2.540941 2,175 265 147 2880
2019-04-26 02:13:50 GMT 48.995766 2.544636 2,000 266 147 3136
2019-04-26 02:13:45 GMT 48.995956 2.548265 1,800 267 148 3584
2019-04-26 02:13:41 GMT 48.996136 2.553093 1,325 268 153 4096
2019-04-26 02:13:35 GMT 48.996323 2.559321 1,100 268 157 3968
2019-04-26 02:13:31 GMT 48.996464 2.564513 800 268 161 3648
We lost coverage of the aircraft here for a total of 9 minutes
2019-04-26 02:04:57 GMT 49.009163 2.581629 0 5 12
2019-04-26 02:04:43 GMT 49.009678 2.580960 0 5 11
2019-04-26 02:04:37 GMT 49.010044 2.580902 0 5 18
2019-04-26 02:03:46 GMT 49.016418 2.580115 0 5 25
2019-04-26 02:03:16 GMT 49.019348 2.579234 0 5 18
2019-04-26 02:03:04 GMT 49.019833 2.578245 0 5 14
2019-04-26 02:02:54 GMT 49.019985 2.577342 0 5 14
2019-04-26 02:02:39 GMT 49.019920 2.575519 0 5 23
2019-04-26 02:02:32 GMT 49.019855 2.574451 0 5 30
2019-04-26 02:02:20 GMT 49.019726 2.571928 0 5 30
2019-04-26 02:02:13 GMT 49.019646 2.570421 0 5 28
2019-04-26 02:02:04 GMT 49.019554 2.568759 0 5 26
2019-04-26 02:01:53 GMT 49.019447 2.566807 0 5 25
2019-04-26 02:01:44 GMT 49.019371 2.565272 0 5 23
2019-04-26 02:01:34 GMT 49.019279 2.563635 0 5 23
2019-04-26 02:01:24 GMT 49.019203 2.562091 0 5 23
2019-04-26 02:01:13 GMT 49.019112 2.560357 0 5 23
2019-04-26 02:00:59 GMT 49.018982 2.558107 0 5 24
2019-04-26 02:00:53 GMT 49.018936 2.557212 0 5 23
2019-04-26 02:00:23 GMT 49.018696 2.552754 0 5 19
2019-04-26 02:00:18 GMT 49.018669 2.552117 0 5 19
2019-04-26 02:00:11 GMT 49.018616 2.551223 0 5 18
2019-04-26 02:00:03 GMT 49.018559 2.550131 0 5 18
2019-04-26 01:59:53 GMT 49.018482 2.548846 0 5 19
2019-04-26 01:59:42 GMT 49.018414 2.547545 0 5 21
2019-04-26 01:59:31 GMT 49.018330 2.545919 0 5 23
2019-04-26 01:59:17 GMT 49.018215 2.543624 0 5 22
2019-04-26 01:59:11 GMT 49.018169 2.542757 0 5 22
2019-04-26 01:58:58 GMT 49.018055 2.540800 0 5 21
2019-04-26 01:58:50 GMT 49.017994 2.539649 0 5 21
2019-04-26 01:58:08 GMT 49.017597 2.532312 0 5 22
2019-04-26 01:57:56 GMT 49.017506 2.530560 0 5 24
2019-04-26 01:57:33 GMT 49.017296 2.526602 0 5 24
2019-04-26 01:57:30 GMT 49.017265 2.526081 0 5 25
2019-04-26 01:57:12 GMT 49.017094 2.522912 0 5 25
2019-04-26 01:57:09 GMT 49.017063 2.522374 0 5 26
2019-04-26 01:56:59 GMT 49.016968 2.520693 0 5 27
2019-04-26 01:56:49 GMT 49.016865 2.518739 0 5 26
2019-04-26 01:56:39 GMT 49.016769 2.517044 0 5 24
2019-04-26 01:56:29 GMT 49.016689 2.515472 0 5 20
2019-04-26 01:56:19 GMT 49.016621 2.514116 0 5 19
2019-04-26 01:56:08 GMT 49.016541 2.512653 0 5 18
2019-04-26 01:55:57 GMT 49.016468 2.511370 0 5 17
2019-04-26 01:55:48 GMT 49.016411 2.510376 0 5 15
2019-04-26 01:55:39 GMT 49.016373 2.509478 0 5 12
2019-04-26 01:55:24 GMT 49.016315 2.508457 0 5 11

Making use of Plane Finder data

You are free to use the raw flight data, aircraft information and images provided in this report for your own purposes provided the data is correctly attributed to Plane Finder. We ask that you please credit Plane Finder and link to planefinder.net in close proximity to the content.

Optionally one of the following logos (no smaller then 150x24px) can be used and must link to planefinder.net

Embedding the Plane Finder map

You are welcome to embed the Plane Finder playback map on your website to offer visitors a more interactive experience. We suggest using the following HTML code:

<iframe src="//planefinder.net/data/report/FX5190-N939FD-7700-squawk-2019-04-26/map" width="800" height="600" seamless="seamless"></iframe>

Where our data comes from

Plane Finder has a global network of data feeds and antenna radars that receive data broadcast directly from aircraft. The primary technologies used are ADS-B and MLAT. We also show feeds from the FAA and a FLARM glider feed.

Click here to find out more about the Plane Finder network.

How we collect our data